<?xml version="1.0" encoding="UTF-8"?><gpx xmlns="http://www.topografix.com/GPX/1/1" version="1.1" creator="iOrient"><trk><name>Старый Новый год трейл (Online)</name><trkseg><trkpt lat="56.2897854" lon="44.0163935"><time>2023-09-20T13:09:04.467</time></trkpt><trkpt lat="56.2897679" lon="44.0164102"><time>2023-09-20T13:09:05.440</time></trkpt><trkpt lat="56.2897119" lon="44.0164594"><time>2023-09-20T13:09:08.443</time></trkpt><trkpt lat="56.2896643" lon="44.0164889"><time>2023-09-20T13:09:10.457</time></trkpt><trkpt lat="56.2896179" lon="44.0165201"><time>2023-09-20T13:09:12.477</time></trkpt><trkpt lat="56.2895756" lon="44.0165561"><time>2023-09-20T13:09:14.467</time></trkpt><trkpt lat="56.2896326" lon="44.0165091"><time>2023-09-20T13:09:21.437</time></trkpt><trkpt lat="56.2896776" lon="44.0164686"><time>2023-09-20T13:09:23.457</time></trkpt><trkpt lat="56.2897213" lon="44.0164397"><time>2023-09-20T13:09:25.453</time></trkpt><trkpt lat="56.2897698" lon="44.0164136"><time>2023-09-20T13:09:27.450</time></trkpt><trkpt lat="56.2897232" lon="44.0164433"><time>2023-09-20T13:09:36.440</time></trkpt><trkpt lat="56.2896688" lon="44.0164827"><time>2023-09-20T13:09:39.440</time></trkpt><trkpt lat="56.2896193" lon="44.0165224"><time>2023-09-20T13:09:42.457</time></trkpt><trkpt lat="56.2895678" lon="44.0165614"><time>2023-09-20T13:09:45.440</time></trkpt><trkpt lat="56.2895189" lon="44.0166027"><time>2023-09-20T13:09:48.450</time></trkpt><trkpt lat="56.2894625" lon="44.0166541"><time>2023-09-20T13:09:51.450</time></trkpt><trkpt lat="56.2894141" lon="44.0166824"><time>2023-09-20T13:09:54.447</time></trkpt><trkpt lat="56.2893622" lon="44.0166865"><time>2023-09-20T13:09:57.450</time></trkpt><trkpt lat="56.2892982" lon="44.0166772"><time>2023-09-20T13:10:00.440</time></trkpt><trkpt lat="56.2892451" lon="44.0166678"><time>2023-09-20T13:10:03.450</time></trkpt><trkpt lat="56.2891939" lon="44.0166613"><time>2023-09-20T13:10:06.440</time></trkpt><trkpt lat="56.2891762" lon="44.0166547"><time>2023-09-20T13:10:07.433</time></trkpt><trkpt lat="56.2891229" lon="44.0166422"><time>2023-09-20T13:10:10.487</time></trkpt><trkpt lat="56.2891727" lon="44.0166764"><time>2023-09-20T13:10:24.460</time></trkpt><trkpt lat="56.2892201" lon="44.0167029"><time>2023-09-20T13:10:27.450</time></trkpt><trkpt lat="56.2892758" lon="44.0167062"><time>2023-09-20T13:10:30.460</time></trkpt><trkpt lat="56.2892945" lon="44.0167054"><time>2023-09-20T13:10:31.443</time></trkpt><trkpt lat="56.2893481" lon="44.0167222"><time>2023-09-20T13:10:34.463</time></trkpt><trkpt lat="56.2893398" lon="44.0168210"><time>2023-09-20T13:10:37.447</time></trkpt><trkpt lat="56.2893017" lon="44.0168751"><time>2023-09-20T13:10:39.457</time></trkpt><trkpt lat="56.2892475" lon="44.0169207"><time>2023-09-20T13:10:42.460</time></trkpt><trkpt lat="56.2892321" lon="44.0169371"><time>2023-09-20T13:10:43.443</time></trkpt><trkpt lat="56.2891791" lon="44.0169965"><time>2023-09-20T13:10:46.450</time></trkpt><trkpt lat="56.2891296" lon="44.0170623"><time>2023-09-20T13:10:49.440</time></trkpt><trkpt lat="56.2890886" lon="44.0171271"><time>2023-09-20T13:10:52.443</time></trkpt><trkpt lat="56.2890456" lon="44.0172069"><time>2023-09-20T13:10:55.427</time></trkpt><trkpt lat="56.2890063" lon="44.0173108"><time>2023-09-20T13:10:58.433</time></trkpt><trkpt lat="56.2889892" lon="44.0173892"><time>2023-09-20T13:11:00.447</time></trkpt><trkpt lat="56.2889394" lon="44.0174648"><time>2023-09-20T13:11:03.457</time></trkpt><trkpt lat="56.2889199" lon="44.0174849"><time>2023-09-20T13:11:04.430</time></trkpt><trkpt lat="56.2888628" lon="44.0175235"><time>2023-09-20T13:11:07.473</time></trkpt><trkpt lat="56.2888007" lon="44.0175442"><time>2023-09-20T13:11:10.450</time></trkpt><trkpt lat="56.2887365" lon="44.0175829"><time>2023-09-20T13:11:13.457</time></trkpt><trkpt lat="56.2886783" lon="44.0176265"><time>2023-09-20T13:11:16.430</time></trkpt><trkpt lat="56.2886345" lon="44.0176556"><time>2023-09-20T13:11:18.450</time></trkpt><trkpt lat="56.2885825" lon="44.0176841"><time>2023-09-20T13:11:20.447</time></trkpt><trkpt lat="56.2885364" lon="44.0176931"><time>2023-09-20T13:11:22.457</time></trkpt><trkpt lat="56.2884747" lon="44.0177373"><time>2023-09-20T13:11:25.450</time></trkpt><trkpt lat="56.2884316" lon="44.0177696"><time>2023-09-20T13:11:27.437</time></trkpt><trkpt lat="56.2883704" lon="44.0177939"><time>2023-09-20T13:11:30.443</time></trkpt><trkpt lat="56.2883264" lon="44.0178137"><time>2023-09-20T13:11:32.457</time></trkpt><trkpt lat="56.2882616" lon="44.0178585"><time>2023-09-20T13:11:35.443</time></trkpt><trkpt lat="56.2882152" lon="44.0178948"><time>2023-09-20T13:11:37.467</time></trkpt><trkpt lat="56.2881929" lon="44.0179201"><time>2023-09-20T13:11:38.450</time></trkpt><trkpt lat="56.2881440" lon="44.0179628"><time>2023-09-20T13:11:40.447</time></trkpt><trkpt lat="56.2880989" lon="44.0180019"><time>2023-09-20T13:11:42.417</time></trkpt><trkpt lat="56.2880573" lon="44.0180340"><time>2023-09-20T13:11:44.460</time></trkpt><trkpt lat="56.2879933" lon="44.0180842"><time>2023-09-20T13:11:47.447</time></trkpt><trkpt lat="56.2879460" lon="44.0181197"><time>2023-09-20T13:11:49.447</time></trkpt><trkpt lat="56.2879008" lon="44.0181577"><time>2023-09-20T13:11:51.433</time></trkpt><trkpt lat="56.2878569" lon="44.0181865"><time>2023-09-20T13:11:53.453</time></trkpt><trkpt lat="56.2878171" lon="44.0182264"><time>2023-09-20T13:11:55.480</time></trkpt><trkpt lat="56.2877956" lon="44.0182413"><time>2023-09-20T13:11:56.443</time></trkpt><trkpt lat="56.2877522" lon="44.0182742"><time>2023-09-20T13:11:58.443</time></trkpt><trkpt lat="56.2876922" lon="44.0183133"><time>2023-09-20T13:12:01.453</time></trkpt><trkpt lat="56.2876448" lon="44.0183439"><time>2023-09-20T13:12:03.430</time></trkpt><trkpt lat="56.2876060" lon="44.0183853"><time>2023-09-20T13:12:05.430</time></trkpt><trkpt lat="56.2875612" lon="44.0184061"><time>2023-09-20T13:12:07.413</time></trkpt><trkpt lat="56.2875039" lon="44.0184266"><time>2023-09-20T13:12:10.447</time></trkpt><trkpt lat="56.2874469" lon="44.0184526"><time>2023-09-20T13:12:13.483</time></trkpt><trkpt lat="56.2874469" lon="44.0184526"><time>2023-09-20T13:12:13.543</time></trkpt><trkpt lat="56.2873822" lon="44.0184723"><time>2023-09-20T13:12:16.460</time></trkpt><trkpt lat="56.2873597" lon="44.0184676"><time>2023-09-20T13:12:17.450</time></trkpt><trkpt lat="56.2873466" lon="44.0183795"><time>2023-09-20T13:12:21.430</time></trkpt><trkpt lat="56.2873924" lon="44.0182869"><time>2023-09-20T13:12:24.460</time></trkpt><trkpt lat="56.2874227" lon="44.0182216"><time>2023-09-20T13:12:26.453</time></trkpt><trkpt lat="56.2874474" lon="44.0181460"><time>2023-09-20T13:12:28.430</time></trkpt><trkpt lat="56.2874569" lon="44.0180660"><time>2023-09-20T13:12:30.487</time></trkpt><trkpt lat="56.2874567" lon="44.0179809"><time>2023-09-20T13:12:32.467</time></trkpt><trkpt lat="56.2874646" lon="44.0178808"><time>2023-09-20T13:12:35.447</time></trkpt><trkpt lat="56.2874630" lon="44.0177963"><time>2023-09-20T13:12:37.440</time></trkpt><trkpt lat="56.2874583" lon="44.0176968"><time>2023-09-20T13:12:39.460</time></trkpt><trkpt lat="56.2874565" lon="44.0175948"><time>2023-09-20T13:12:41.443</time></trkpt><trkpt lat="56.2874414" lon="44.0175097"><time>2023-09-20T13:12:43.443</time></trkpt><trkpt lat="56.2874020" lon="44.0174322"><time>2023-09-20T13:12:46.453</time></trkpt><trkpt lat="56.2873655" lon="44.0173476"><time>2023-09-20T13:12:49.447</time></trkpt><trkpt lat="56.2873542" lon="44.0172638"><time>2023-09-20T13:12:53.453</time></trkpt><trkpt lat="56.2873374" lon="44.0171709"><time>2023-09-20T13:12:57.457</time></trkpt><trkpt lat="56.2873174" lon="44.0170879"><time>2023-09-20T13:13:01.447</time></trkpt><trkpt lat="56.2872921" lon="44.0170041"><time>2023-09-20T13:13:06.457</time></trkpt><trkpt lat="56.2872613" lon="44.0169211"><time>2023-09-20T13:13:10.447</time></trkpt><trkpt lat="56.2872229" lon="44.0168732"><time>2023-09-20T13:13:13.440</time></trkpt><trkpt lat="56.2871704" lon="44.0168232"><time>2023-09-20T13:13:16.423</time></trkpt><trkpt lat="56.2871392" lon="44.0167629"><time>2023-09-20T13:13:18.447</time></trkpt><trkpt lat="56.2870898" lon="44.0167118"><time>2023-09-20T13:13:21.453</time></trkpt><trkpt lat="56.2870320" lon="44.0166780"><time>2023-09-20T13:13:24.487</time></trkpt><trkpt lat="56.2869831" lon="44.0166556"><time>2023-09-20T13:13:27.447</time></trkpt><trkpt lat="56.2869274" lon="44.0166226"><time>2023-09-20T13:13:30.453</time></trkpt><trkpt lat="56.2868827" lon="44.0165674"><time>2023-09-20T13:13:33.440</time></trkpt><trkpt lat="56.2868222" lon="44.0165200"><time>2023-09-20T13:13:36.470</time></trkpt><trkpt lat="56.2867808" lon="44.0164745"><time>2023-09-20T13:13:38.457</time></trkpt><trkpt lat="56.2867320" lon="44.0164378"><time>2023-09-20T13:13:40.453</time></trkpt><trkpt lat="56.2866793" lon="44.0163910"><time>2023-09-20T13:13:42.463</time></trkpt><trkpt lat="56.2866296" lon="44.0163495"><time>2023-09-20T13:13:44.460</time></trkpt><trkpt lat="56.2865905" lon="44.0163055"><time>2023-09-20T13:13:46.457</time></trkpt><trkpt lat="56.2865375" lon="44.0162379"><time>2023-09-20T13:13:49.440</time></trkpt><trkpt lat="56.2864875" lon="44.0161929"><time>2023-09-20T13:13:51.420</time></trkpt><trkpt lat="56.2864339" lon="44.0161371"><time>2023-09-20T13:13:53.423</time></trkpt><trkpt lat="56.2863987" lon="44.0160834"><time>2023-09-20T13:13:55.397</time></trkpt><trkpt lat="56.2863578" lon="44.0160379"><time>2023-09-20T13:13:57.440</time></trkpt><trkpt lat="56.2863011" lon="44.0159705"><time>2023-09-20T13:13:59.410</time></trkpt><trkpt lat="56.2862419" lon="44.0158894"><time>2023-09-20T13:14:01.403</time></trkpt><trkpt lat="56.2861822" lon="44.0158361"><time>2023-09-20T13:14:03.403</time></trkpt><trkpt lat="56.2861282" lon="44.0157902"><time>2023-09-20T13:14:05.407</time></trkpt><trkpt lat="56.2860565" lon="44.0157345"><time>2023-09-20T13:14:07.400</time></trkpt><trkpt lat="56.2859980" lon="44.0156936"><time>2023-09-20T13:14:10.410</time></trkpt><trkpt lat="56.2859570" lon="44.0156335"><time>2023-09-20T13:14:13.393</time></trkpt><trkpt lat="56.2859077" lon="44.0155852"><time>2023-09-20T13:14:15.427</time></trkpt><trkpt lat="56.2858467" lon="44.0155787"><time>2023-09-20T13:14:17.433</time></trkpt><trkpt lat="56.2857821" lon="44.0155596"><time>2023-09-20T13:14:20.410</time></trkpt><trkpt lat="56.2857244" lon="44.0155072"><time>2023-09-20T13:14:22.450</time></trkpt><trkpt lat="56.2856722" lon="44.0154787"><time>2023-09-20T13:14:24.450</time></trkpt><trkpt lat="56.2856217" lon="44.0154321"><time>2023-09-20T13:14:26.433</time></trkpt><trkpt lat="56.2855819" lon="44.0153890"><time>2023-09-20T13:14:28.453</time></trkpt><trkpt lat="56.2855359" lon="44.0153596"><time>2023-09-20T13:14:29.433</time></trkpt><trkpt lat="56.2854822" lon="44.0153370"><time>2023-09-20T13:14:30.483</time></trkpt><trkpt lat="56.2854298" lon="44.0153419"><time>2023-09-20T13:14:31.417</time></trkpt><trkpt lat="56.2853827" lon="44.0153433"><time>2023-09-20T13:14:32.417</time></trkpt><trkpt lat="56.2853371" lon="44.0152850"><time>2023-09-20T13:14:34.447</time></trkpt><trkpt lat="56.2852721" lon="44.0152525"><time>2023-09-20T13:14:36.453</time></trkpt><trkpt lat="56.2851960" lon="44.0152483"><time>2023-09-20T13:14:39.453</time></trkpt><trkpt lat="56.2851519" lon="44.0152761"><time>2023-09-20T13:14:41.437</time></trkpt><trkpt lat="56.2850878" lon="44.0152701"><time>2023-09-20T13:14:45.450</time></trkpt><trkpt lat="56.2850216" lon="44.0152760"><time>2023-09-20T13:14:48.440</time></trkpt><trkpt lat="56.2849716" lon="44.0152894"><time>2023-09-20T13:14:50.447</time></trkpt><trkpt lat="56.2849056" lon="44.0152916"><time>2023-09-20T13:14:53.407</time></trkpt><trkpt lat="56.2848566" lon="44.0152446"><time>2023-09-20T13:14:55.433</time></trkpt><trkpt lat="56.2848082" lon="44.0152389"><time>2023-09-20T13:14:57.423</time></trkpt><trkpt lat="56.2847530" lon="44.0152821"><time>2023-09-20T13:15:00.440</time></trkpt><trkpt lat="56.2847114" lon="44.0153311"><time>2023-09-20T13:15:02.447</time></trkpt><trkpt lat="56.2846609" lon="44.0153877"><time>2023-09-20T13:15:05.423</time></trkpt><trkpt lat="56.2846054" lon="44.0154292"><time>2023-09-20T13:15:08.417</time></trkpt><trkpt lat="56.2845715" lon="44.0155228"><time>2023-09-20T13:15:11.440</time></trkpt><trkpt lat="56.2845226" lon="44.0156102"><time>2023-09-20T13:15:14.457</time></trkpt><trkpt lat="56.2844801" lon="44.0156820"><time>2023-09-20T13:15:16.460</time></trkpt><trkpt lat="56.2844495" lon="44.0157848"><time>2023-09-20T13:15:18.443</time></trkpt><trkpt lat="56.2844241" lon="44.0158896"><time>2023-09-20T13:15:20.440</time></trkpt><trkpt lat="56.2844033" lon="44.0159769"><time>2023-09-20T13:15:22.467</time></trkpt><trkpt lat="56.2843945" lon="44.0160589"><time>2023-09-20T13:15:24.443</time></trkpt><trkpt lat="56.2843807" lon="44.0161879"><time>2023-09-20T13:15:27.450</time></trkpt><trkpt lat="56.2843827" lon="44.0162819"><time>2023-09-20T13:15:29.443</time></trkpt><trkpt lat="56.2843833" lon="44.0163720"><time>2023-09-20T13:15:31.440</time></trkpt><trkpt lat="56.2843922" lon="44.0164614"><time>2023-09-20T13:15:33.433</time></trkpt><trkpt lat="56.2843998" lon="44.0165422"><time>2023-09-20T13:15:35.443</time></trkpt><trkpt lat="56.2844007" lon="44.0166339"><time>2023-09-20T13:15:37.443</time></trkpt><trkpt lat="56.2843873" lon="44.0167348"><time>2023-09-20T13:15:39.437</time></trkpt><trkpt lat="56.2843642" lon="44.0168374"><time>2023-09-20T13:15:41.443</time></trkpt><trkpt lat="56.2843339" lon="44.0169416"><time>2023-09-20T13:15:43.457</time></trkpt><trkpt lat="56.2842858" lon="44.0170243"><time>2023-09-20T13:15:45.437</time></trkpt><trkpt lat="56.2842576" lon="44.0170948"><time>2023-09-20T13:15:47.443</time></trkpt><trkpt lat="56.2842219" lon="44.0171952"><time>2023-09-20T13:15:50.457</time></trkpt><trkpt lat="56.2841894" lon="44.0173068"><time>2023-09-20T13:15:53.457</time></trkpt><trkpt lat="56.2841527" lon="44.0174246"><time>2023-09-20T13:15:56.450</time></trkpt><trkpt lat="56.2841062" lon="44.0174813"><time>2023-09-20T13:15:58.440</time></trkpt><trkpt lat="56.2840579" lon="44.0174769"><time>2023-09-20T13:16:00.440</time></trkpt><trkpt lat="56.2839996" lon="44.0174866"><time>2023-09-20T13:16:02.450</time></trkpt><trkpt lat="56.2839547" lon="44.0175113"><time>2023-09-20T13:16:03.453</time></trkpt><trkpt lat="56.2839023" lon="44.0175386"><time>2023-09-20T13:16:05.450</time></trkpt><trkpt lat="56.2838501" lon="44.0175583"><time>2023-09-20T13:16:07.497</time></trkpt><trkpt lat="56.2838048" lon="44.0175810"><time>2023-09-20T13:16:09.417</time></trkpt><trkpt lat="56.2837338" lon="44.0176685"><time>2023-09-20T13:16:11.423</time></trkpt><trkpt lat="56.2836864" lon="44.0176891"><time>2023-09-20T13:16:13.457</time></trkpt><trkpt lat="56.2836375" lon="44.0176605"><time>2023-09-20T13:16:15.450</time></trkpt><trkpt lat="56.2835906" lon="44.0176818"><time>2023-09-20T13:16:17.413</time></trkpt><trkpt lat="56.2835330" lon="44.0177037"><time>2023-09-20T13:16:20.457</time></trkpt><trkpt lat="56.2834792" lon="44.0177264"><time>2023-09-20T13:16:22.440</time></trkpt><trkpt lat="56.2834269" lon="44.0177520"><time>2023-09-20T13:16:24.457</time></trkpt><trkpt lat="56.2833826" lon="44.0177787"><time>2023-09-20T13:16:26.460</time></trkpt><trkpt lat="56.2833380" lon="44.0178246"><time>2023-09-20T13:16:28.447</time></trkpt><trkpt lat="56.2832735" lon="44.0178670"><time>2023-09-20T13:16:31.440</time></trkpt><trkpt lat="56.2832272" lon="44.0179053"><time>2023-09-20T13:16:33.457</time></trkpt><trkpt lat="56.2831760" lon="44.0179534"><time>2023-09-20T13:16:35.433</time></trkpt><trkpt lat="56.2831210" lon="44.0179981"><time>2023-09-20T13:16:38.433</time></trkpt><trkpt lat="56.2830610" lon="44.0180286"><time>2023-09-20T13:16:41.440</time></trkpt><trkpt lat="56.2830156" lon="44.0180564"><time>2023-09-20T13:16:43.447</time></trkpt><trkpt lat="56.2829606" lon="44.0181014"><time>2023-09-20T13:16:46.443</time></trkpt><trkpt lat="56.2829177" lon="44.0181370"><time>2023-09-20T13:16:48.443</time></trkpt><trkpt lat="56.2828571" lon="44.0181862"><time>2023-09-20T13:16:51.450</time></trkpt><trkpt lat="56.2828196" lon="44.0182339"><time>2023-09-20T13:16:53.467</time></trkpt><trkpt lat="56.2827827" lon="44.0182856"><time>2023-09-20T13:16:55.437</time></trkpt><trkpt lat="56.2827435" lon="44.0183292"><time>2023-09-20T13:16:57.437</time></trkpt><trkpt lat="56.2826996" lon="44.0183781"><time>2023-09-20T13:16:59.470</time></trkpt><trkpt lat="56.2826545" lon="44.0184273"><time>2023-09-20T13:17:01.443</time></trkpt><trkpt lat="56.2826040" lon="44.0184703"><time>2023-09-20T13:17:03.460</time></trkpt><trkpt lat="56.2825559" lon="44.0184957"><time>2023-09-20T13:17:05.427</time></trkpt><trkpt lat="56.2825011" lon="44.0185330"><time>2023-09-20T13:17:08.440</time></trkpt><trkpt lat="56.2824389" lon="44.0185628"><time>2023-09-20T13:17:11.450</time></trkpt><trkpt lat="56.2823777" lon="44.0185993"><time>2023-09-20T13:17:14.443</time></trkpt><trkpt lat="56.2823307" lon="44.0186302"><time>2023-09-20T13:17:16.430</time></trkpt><trkpt lat="56.2822654" lon="44.0186749"><time>2023-09-20T13:17:19.453</time></trkpt><trkpt lat="56.2821693" lon="44.0187370"><time>2023-09-20T13:17:22.450</time></trkpt><trkpt lat="56.2820912" lon="44.0187826"><time>2023-09-20T13:17:24.450</time></trkpt><trkpt lat="56.2820300" lon="44.0188138"><time>2023-09-20T13:17:26.463</time></trkpt><trkpt lat="56.2819747" lon="44.0188505"><time>2023-09-20T13:17:28.473</time></trkpt><trkpt lat="56.2819270" lon="44.0188643"><time>2023-09-20T13:17:30.443</time></trkpt><trkpt lat="56.2818801" lon="44.0188418"><time>2023-09-20T13:17:32.437</time></trkpt><trkpt lat="56.2818290" lon="44.0187894"><time>2023-09-20T13:17:35.447</time></trkpt><trkpt lat="56.2817796" lon="44.0187507"><time>2023-09-20T13:17:38.440</time></trkpt><trkpt lat="56.2817336" lon="44.0186867"><time>2023-09-20T13:17:41.460</time></trkpt><trkpt lat="56.2816978" lon="44.0186230"><time>2023-09-20T13:17:44.453</time></trkpt><trkpt lat="56.2816531" lon="44.0185823"><time>2023-09-20T13:17:47.450</time></trkpt><trkpt lat="56.2816256" lon="44.0185006"><time>2023-09-20T13:17:50.440</time></trkpt><trkpt lat="56.2815759" lon="44.0184359"><time>2023-09-20T13:17:53.467</time></trkpt><trkpt lat="56.2815321" lon="44.0183734"><time>2023-09-20T13:17:55.457</time></trkpt><trkpt lat="56.2814931" lon="44.0183209"><time>2023-09-20T13:17:57.473</time></trkpt><trkpt lat="56.2814420" lon="44.0182658"><time>2023-09-20T13:18:00.483</time></trkpt><trkpt lat="56.2813783" lon="44.0182372"><time>2023-09-20T13:18:03.460</time></trkpt><trkpt lat="56.2813203" lon="44.0181661"><time>2023-09-20T13:18:06.413</time></trkpt><trkpt lat="56.2812715" lon="44.0181047"><time>2023-09-20T13:18:08.450</time></trkpt><trkpt lat="56.2812179" lon="44.0180531"><time>2023-09-20T13:18:10.470</time></trkpt><trkpt lat="56.2811733" lon="44.0179853"><time>2023-09-20T13:18:12.433</time></trkpt><trkpt lat="56.2811324" lon="44.0179430"><time>2023-09-20T13:18:15.410</time></trkpt><trkpt lat="56.2810894" lon="44.0178822"><time>2023-09-20T13:18:18.437</time></trkpt><trkpt lat="56.2810557" lon="44.0177832"><time>2023-09-20T13:18:21.470</time></trkpt><trkpt lat="56.2810291" lon="44.0177043"><time>2023-09-20T13:18:24.457</time></trkpt><trkpt lat="56.2810070" lon="44.0175972"><time>2023-09-20T13:18:27.447</time></trkpt><trkpt lat="56.2809823" lon="44.0175057"><time>2023-09-20T13:18:30.437</time></trkpt><trkpt lat="56.2809636" lon="44.0174080"><time>2023-09-20T13:18:33.453</time></trkpt><trkpt lat="56.2809526" lon="44.0173276"><time>2023-09-20T13:18:35.450</time></trkpt><trkpt lat="56.2809623" lon="44.0172444"><time>2023-09-20T13:18:37.450</time></trkpt><trkpt lat="56.2809480" lon="44.0171496"><time>2023-09-20T13:18:40.440</time></trkpt><trkpt lat="56.2809587" lon="44.0170659"><time>2023-09-20T13:18:42.450</time></trkpt><trkpt lat="56.2809887" lon="44.0169495"><time>2023-09-20T13:18:45.437</time></trkpt><trkpt lat="56.2810076" lon="44.0168638"><time>2023-09-20T13:18:48.450</time></trkpt><trkpt lat="56.2810193" lon="44.0167575"><time>2023-09-20T13:18:51.450</time></trkpt><trkpt lat="56.2810140" lon="44.0166342"><time>2023-09-20T13:18:54.453</time></trkpt><trkpt lat="56.2809963" lon="44.0165293"><time>2023-09-20T13:18:57.447</time></trkpt><trkpt lat="56.2809708" lon="44.0164609"><time>2023-09-20T13:18:59.450</time></trkpt><trkpt lat="56.2809419" lon="44.0163755"><time>2023-09-20T13:19:01.463</time></trkpt><trkpt lat="56.2809011" lon="44.0163095"><time>2023-09-20T13:19:03.460</time></trkpt><trkpt lat="56.2808695" lon="44.0162475"><time>2023-09-20T13:19:05.447</time></trkpt><trkpt lat="56.2808320" lon="44.0161657"><time>2023-09-20T13:19:07.433</time></trkpt><trkpt lat="56.2807829" lon="44.0161044"><time>2023-09-20T13:19:09.440</time></trkpt><trkpt lat="56.2807406" lon="44.0160479"><time>2023-09-20T13:19:11.437</time></trkpt><trkpt lat="56.2807005" lon="44.0160065"><time>2023-09-20T13:19:13.447</time></trkpt><trkpt lat="56.2806510" lon="44.0159427"><time>2023-09-20T13:19:16.470</time></trkpt><trkpt lat="56.2806058" lon="44.0158809"><time>2023-09-20T13:19:19.450</time></trkpt><trkpt lat="56.2805609" lon="44.0157769"><time>2023-09-20T13:19:22.470</time></trkpt><trkpt lat="56.2805223" lon="44.0157142"><time>2023-09-20T13:19:24.457</time></trkpt><trkpt lat="56.2804713" lon="44.0156375"><time>2023-09-20T13:19:27.413</time></trkpt><trkpt lat="56.2803980" lon="44.0154968"><time>2023-09-20T13:19:29.430</time></trkpt><trkpt lat="56.2803600" lon="44.0154104"><time>2023-09-20T13:19:30.427</time></trkpt><trkpt lat="56.2803181" lon="44.0153275"><time>2023-09-20T13:19:31.423</time></trkpt><trkpt lat="56.2802547" lon="44.0152883"><time>2023-09-20T13:19:33.450</time></trkpt><trkpt lat="56.2802171" lon="44.0152429"><time>2023-09-20T13:19:35.440</time></trkpt><trkpt lat="56.2801797" lon="44.0151876"><time>2023-09-20T13:19:37.430</time></trkpt><trkpt lat="56.2801358" lon="44.0151178"><time>2023-09-20T13:19:39.450</time></trkpt><trkpt lat="56.2800943" lon="44.0150506"><time>2023-09-20T13:19:41.440</time></trkpt><trkpt lat="56.2800475" lon="44.0150038"><time>2023-09-20T13:19:43.437</time></trkpt><trkpt lat="56.2800012" lon="44.0149236"><time>2023-09-20T13:19:46.453</time></trkpt><trkpt lat="56.2799634" lon="44.0148710"><time>2023-09-20T13:19:48.443</time></trkpt><trkpt lat="56.2799254" lon="44.0148074"><time>2023-09-20T13:19:50.440</time></trkpt><trkpt lat="56.2798803" lon="44.0147511"><time>2023-09-20T13:19:52.453</time></trkpt><trkpt lat="56.2798306" lon="44.0146987"><time>2023-09-20T13:19:54.427</time></trkpt><trkpt lat="56.2797840" lon="44.0146594"><time>2023-09-20T13:19:56.467</time></trkpt><trkpt lat="56.2797423" lon="44.0146193"><time>2023-09-20T13:19:58.450</time></trkpt><trkpt lat="56.2796893" lon="44.0145909"><time>2023-09-20T13:20:01.440</time></trkpt><trkpt lat="56.2796301" lon="44.0145313"><time>2023-09-20T13:20:04.450</time></trkpt><trkpt lat="56.2795880" lon="44.0144809"><time>2023-09-20T13:20:06.443</time></trkpt><trkpt lat="56.2795374" lon="44.0144228"><time>2023-09-20T13:20:08.467</time></trkpt><trkpt lat="56.2795187" lon="44.0143948"><time>2023-09-20T13:20:09.443</time></trkpt><trkpt lat="56.2794709" lon="44.0143481"><time>2023-09-20T13:20:11.447</time></trkpt><trkpt lat="56.2794184" lon="44.0143251"><time>2023-09-20T13:20:14.457</time></trkpt><trkpt lat="56.2793630" lon="44.0142959"><time>2023-09-20T13:20:16.440</time></trkpt><trkpt lat="56.2793128" lon="44.0142944"><time>2023-09-20T13:20:18.440</time></trkpt><trkpt lat="56.2792627" lon="44.0143106"><time>2023-09-20T13:20:20.467</time></trkpt><trkpt lat="56.2792399" lon="44.0143123"><time>2023-09-20T13:20:21.447</time></trkpt><trkpt lat="56.2791822" lon="44.0143065"><time>2023-09-20T13:20:23.443</time></trkpt><trkpt lat="56.2791264" lon="44.0143148"><time>2023-09-20T13:20:25.423</time></trkpt><trkpt lat="56.2790804" lon="44.0143145"><time>2023-09-20T13:20:27.453</time></trkpt><trkpt lat="56.2790091" lon="44.0143262"><time>2023-09-20T13:20:29.443</time></trkpt><trkpt lat="56.2789357" lon="44.0142781"><time>2023-09-20T13:20:32.440</time></trkpt><trkpt lat="56.2789038" lon="44.0142104"><time>2023-09-20T13:20:34.443</time></trkpt><trkpt lat="56.2788781" lon="44.0141330"><time>2023-09-20T13:20:36.443</time></trkpt><trkpt lat="56.2788705" lon="44.0140359"><time>2023-09-20T13:20:39.443</time></trkpt><trkpt lat="56.2788793" lon="44.0139426"><time>2023-09-20T13:20:42.450</time></trkpt><trkpt lat="56.2788612" lon="44.0138233"><time>2023-09-20T13:20:45.473</time></trkpt><trkpt lat="56.2788552" lon="44.0137902"><time>2023-09-20T13:20:46.453</time></trkpt><trkpt lat="56.2788570" lon="44.0136991"><time>2023-09-20T13:20:48.447</time></trkpt><trkpt lat="56.2788715" lon="44.0136056"><time>2023-09-20T13:20:50.463</time></trkpt><trkpt lat="56.2788905" lon="44.0135071"><time>2023-09-20T13:20:53.440</time></trkpt><trkpt lat="56.2788985" lon="44.0134150"><time>2023-09-20T13:20:56.457</time></trkpt><trkpt lat="56.2788809" lon="44.0133328"><time>2023-09-20T13:20:58.467</time></trkpt><trkpt lat="56.2788578" lon="44.0132589"><time>2023-09-20T13:21:00.463</time></trkpt><trkpt lat="56.2788603" lon="44.0131395"><time>2023-09-20T13:21:03.423</time></trkpt><trkpt lat="56.2788587" lon="44.0130393"><time>2023-09-20T13:21:05.437</time></trkpt><trkpt lat="56.2788648" lon="44.0129234"><time>2023-09-20T13:21:08.427</time></trkpt><trkpt lat="56.2788620" lon="44.0128067"><time>2023-09-20T13:21:11.460</time></trkpt><trkpt lat="56.2788589" lon="44.0126816"><time>2023-09-20T13:21:14.453</time></trkpt><trkpt lat="56.2788480" lon="44.0125691"><time>2023-09-20T13:21:17.440</time></trkpt><trkpt lat="56.2788313" lon="44.0124904"><time>2023-09-20T13:21:19.457</time></trkpt><trkpt lat="56.2788276" lon="44.0124075"><time>2023-09-20T13:21:21.413</time></trkpt><trkpt lat="56.2788219" lon="44.0123127"><time>2023-09-20T13:21:23.450</time></trkpt><trkpt lat="56.2788094" lon="44.0122319"><time>2023-09-20T13:21:25.433</time></trkpt><trkpt lat="56.2788326" lon="44.0121138"><time>2023-09-20T13:21:28.450</time></trkpt><trkpt lat="56.2788702" lon="44.0120370"><time>2023-09-20T13:21:31.453</time></trkpt><trkpt lat="56.2789243" lon="44.0120002"><time>2023-09-20T13:21:34.440</time></trkpt><trkpt lat="56.2789719" lon="44.0119537"><time>2023-09-20T13:21:37.450</time></trkpt><trkpt lat="56.2790108" lon="44.0119128"><time>2023-09-20T13:21:39.443</time></trkpt><trkpt lat="56.2790738" lon="44.0118672"><time>2023-09-20T13:21:42.497</time></trkpt><trkpt lat="56.2790915" lon="44.0118502"><time>2023-09-20T13:21:43.440</time></trkpt><trkpt lat="56.2791313" lon="44.0118030"><time>2023-09-20T13:21:45.447</time></trkpt><trkpt lat="56.2791805" lon="44.0117552"><time>2023-09-20T13:21:48.467</time></trkpt><trkpt lat="56.2792339" lon="44.0117269"><time>2023-09-20T13:21:51.457</time></trkpt><trkpt lat="56.2792805" lon="44.0116868"><time>2023-09-20T13:21:54.480</time></trkpt><trkpt lat="56.2793310" lon="44.0116613"><time>2023-09-20T13:21:57.447</time></trkpt><trkpt lat="56.2793792" lon="44.0116468"><time>2023-09-20T13:21:59.413</time></trkpt><trkpt lat="56.2794253" lon="44.0116407"><time>2023-09-20T13:22:01.450</time></trkpt><trkpt lat="56.2794840" lon="44.0115948"><time>2023-09-20T13:22:04.463</time></trkpt><trkpt lat="56.2795010" lon="44.0115823"><time>2023-09-20T13:22:05.437</time></trkpt><trkpt lat="56.2795426" lon="44.0115468"><time>2023-09-20T13:22:07.447</time></trkpt><trkpt lat="56.2795842" lon="44.0115134"><time>2023-09-20T13:22:09.440</time></trkpt><trkpt lat="56.2796280" lon="44.0114700"><time>2023-09-20T13:22:11.443</time></trkpt><trkpt lat="56.2796664" lon="44.0114283"><time>2023-09-20T13:22:13.427</time></trkpt><trkpt lat="56.2797155" lon="44.0113663"><time>2023-09-20T13:22:16.463</time></trkpt><trkpt lat="56.2797574" lon="44.0112971"><time>2023-09-20T13:22:19.477</time></trkpt><trkpt lat="56.2797938" lon="44.0112398"><time>2023-09-20T13:22:21.443</time></trkpt><trkpt lat="56.2798492" lon="44.0111637"><time>2023-09-20T13:22:24.467</time></trkpt><trkpt lat="56.2798492" lon="44.0111637"><time>2023-09-20T13:22:24.543</time></trkpt><trkpt lat="56.2799010" lon="44.0110893"><time>2023-09-20T13:22:27.473</time></trkpt><trkpt lat="56.2799176" lon="44.0110561"><time>2023-09-20T13:22:28.453</time></trkpt><trkpt lat="56.2799559" lon="44.0109933"><time>2023-09-20T13:22:30.447</time></trkpt><trkpt lat="56.2799912" lon="44.0109183"><time>2023-09-20T13:22:32.467</time></trkpt><trkpt lat="56.2800247" lon="44.0108580"><time>2023-09-20T13:22:34.493</time></trkpt><trkpt lat="56.2800573" lon="44.0107918"><time>2023-09-20T13:22:36.463</time></trkpt><trkpt lat="56.2800980" lon="44.0107312"><time>2023-09-20T13:22:38.453</time></trkpt><trkpt lat="56.2801350" lon="44.0106634"><time>2023-09-20T13:22:40.453</time></trkpt><trkpt lat="56.2801627" lon="44.0105971"><time>2023-09-20T13:22:42.440</time></trkpt><trkpt lat="56.2801776" lon="44.0104955"><time>2023-09-20T13:22:45.477</time></trkpt><trkpt lat="56.2801565" lon="44.0104199"><time>2023-09-20T13:22:49.420</time></trkpt><trkpt lat="56.2801410" lon="44.0103386"><time>2023-09-20T13:22:55.453</time></trkpt><trkpt lat="56.2801266" lon="44.0102413"><time>2023-09-20T13:22:59.447</time></trkpt><trkpt lat="56.2800970" lon="44.0101402"><time>2023-09-20T13:23:02.443</time></trkpt><trkpt lat="56.2800576" lon="44.0100510"><time>2023-09-20T13:23:05.437</time></trkpt><trkpt lat="56.2800299" lon="44.0099645"><time>2023-09-20T13:23:08.447</time></trkpt><trkpt lat="56.2800093" lon="44.0098915"><time>2023-09-20T13:23:11.450</time></trkpt><trkpt lat="56.2799608" lon="44.0098337"><time>2023-09-20T13:23:14.440</time></trkpt><trkpt lat="56.2799182" lon="44.0097882"><time>2023-09-20T13:23:17.407</time></trkpt><trkpt lat="56.2798610" lon="44.0098087"><time>2023-09-20T13:23:23.447</time></trkpt><trkpt lat="56.2798153" lon="44.0098149"><time>2023-09-20T13:23:26.420</time></trkpt><trkpt lat="56.2797650" lon="44.0098100"><time>2023-09-20T13:23:29.437</time></trkpt><trkpt lat="56.2797112" lon="44.0098130"><time>2023-09-20T13:23:32.430</time></trkpt><trkpt lat="56.2796608" lon="44.0098034"><time>2023-09-20T13:23:35.440</time></trkpt><trkpt lat="56.2796083" lon="44.0098058"><time>2023-09-20T13:23:38.430</time></trkpt><trkpt lat="56.2795425" lon="44.0097750"><time>2023-09-20T13:23:41.440</time></trkpt><trkpt lat="56.2794773" lon="44.0097582"><time>2023-09-20T13:23:43.457</time></trkpt><trkpt lat="56.2794215" lon="44.0097394"><time>2023-09-20T13:23:45.430</time></trkpt><trkpt lat="56.2793689" lon="44.0097122"><time>2023-09-20T13:23:47.437</time></trkpt><trkpt lat="56.2793145" lon="44.0096915"><time>2023-09-20T13:23:49.433</time></trkpt><trkpt lat="56.2792588" lon="44.0096752"><time>2023-09-20T13:23:51.420</time></trkpt><trkpt lat="56.2792075" lon="44.0096638"><time>2023-09-20T13:23:53.437</time></trkpt><trkpt lat="56.2791419" lon="44.0096777"><time>2023-09-20T13:23:56.433</time></trkpt><trkpt lat="56.2790930" lon="44.0097125"><time>2023-09-20T13:23:58.447</time></trkpt><trkpt lat="56.2790420" lon="44.0097529"><time>2023-09-20T13:24:00.457</time></trkpt><trkpt lat="56.2789920" lon="44.0097895"><time>2023-09-20T13:24:02.447</time></trkpt><trkpt lat="56.2789443" lon="44.0098319"><time>2023-09-20T13:24:04.467</time></trkpt><trkpt lat="56.2788796" lon="44.0098607"><time>2023-09-20T13:24:07.457</time></trkpt><trkpt lat="56.2788319" lon="44.0098810"><time>2023-09-20T13:24:09.440</time></trkpt><trkpt lat="56.2787828" lon="44.0099095"><time>2023-09-20T13:24:11.437</time></trkpt><trkpt lat="56.2787297" lon="44.0099363"><time>2023-09-20T13:24:13.443</time></trkpt><trkpt lat="56.2786752" lon="44.0099614"><time>2023-09-20T13:24:15.460</time></trkpt><trkpt lat="56.2786138" lon="44.0099916"><time>2023-09-20T13:24:17.427</time></trkpt><trkpt lat="56.2785432" lon="44.0100144"><time>2023-09-20T13:24:19.457</time></trkpt><trkpt lat="56.2784850" lon="44.0100525"><time>2023-09-20T13:24:21.417</time></trkpt><trkpt lat="56.2784270" lon="44.0100785"><time>2023-09-20T13:24:23.440</time></trkpt><trkpt lat="56.2783650" lon="44.0101347"><time>2023-09-20T13:24:25.507</time></trkpt><trkpt lat="56.2783116" lon="44.0101769"><time>2023-09-20T13:24:27.440</time></trkpt><trkpt lat="56.2782547" lon="44.0101898"><time>2023-09-20T13:24:29.457</time></trkpt><trkpt lat="56.2781971" lon="44.0101925"><time>2023-09-20T13:24:31.473</time></trkpt><trkpt lat="56.2781411" lon="44.0102077"><time>2023-09-20T13:24:33.470</time></trkpt><trkpt lat="56.2780905" lon="44.0102010"><time>2023-09-20T13:24:35.447</time></trkpt><trkpt lat="56.2780353" lon="44.0101986"><time>2023-09-20T13:24:37.477</time></trkpt><trkpt lat="56.2779808" lon="44.0101952"><time>2023-09-20T13:24:39.457</time></trkpt><trkpt lat="56.2779215" lon="44.0101929"><time>2023-09-20T13:24:41.457</time></trkpt><trkpt lat="56.2778646" lon="44.0102087"><time>2023-09-20T13:24:43.453</time></trkpt><trkpt lat="56.2778072" lon="44.0102280"><time>2023-09-20T13:24:45.460</time></trkpt><trkpt lat="56.2777537" lon="44.0102531"><time>2023-09-20T13:24:47.443</time></trkpt><trkpt lat="56.2776920" lon="44.0102725"><time>2023-09-20T13:24:49.450</time></trkpt><trkpt lat="56.2776465" lon="44.0102910"><time>2023-09-20T13:24:51.423</time></trkpt><trkpt lat="56.2775947" lon="44.0102919"><time>2023-09-20T13:24:53.410</time></trkpt><trkpt lat="56.2775492" lon="44.0103067"><time>2023-09-20T13:24:55.407</time></trkpt><trkpt lat="56.2775092" lon="44.0103475"><time>2023-09-20T13:24:57.453</time></trkpt><trkpt lat="56.2774671" lon="44.0104070"><time>2023-09-20T13:24:59.423</time></trkpt><trkpt lat="56.2774067" lon="44.0105007"><time>2023-09-20T13:25:01.440</time></trkpt><trkpt lat="56.2773750" lon="44.0105754"><time>2023-09-20T13:25:03.447</time></trkpt><trkpt lat="56.2773465" lon="44.0106632"><time>2023-09-20T13:25:05.447</time></trkpt><trkpt lat="56.2772996" lon="44.0107569"><time>2023-09-20T13:25:07.447</time></trkpt><trkpt lat="56.2772608" lon="44.0108516"><time>2023-09-20T13:25:09.450</time></trkpt><trkpt lat="56.2772369" lon="44.0109561"><time>2023-09-20T13:25:11.447</time></trkpt><trkpt lat="56.2772173" lon="44.0110541"><time>2023-09-20T13:25:13.440</time></trkpt><trkpt lat="56.2771842" lon="44.0111667"><time>2023-09-20T13:25:15.457</time></trkpt><trkpt lat="56.2771345" lon="44.0112844"><time>2023-09-20T13:25:17.437</time></trkpt><trkpt lat="56.2770928" lon="44.0113966"><time>2023-09-20T13:25:19.473</time></trkpt><trkpt lat="56.2770592" lon="44.0114840"><time>2023-09-20T13:25:21.443</time></trkpt><trkpt lat="56.2770195" lon="44.0115609"><time>2023-09-20T13:25:23.407</time></trkpt><trkpt lat="56.2769774" lon="44.0116160"><time>2023-09-20T13:25:25.457</time></trkpt><trkpt lat="56.2769263" lon="44.0116658"><time>2023-09-20T13:25:27.457</time></trkpt><trkpt lat="56.2768816" lon="44.0117216"><time>2023-09-20T13:25:29.450</time></trkpt><trkpt lat="56.2768402" lon="44.0117913"><time>2023-09-20T13:25:31.437</time></trkpt><trkpt lat="56.2767987" lon="44.0118782"><time>2023-09-20T13:25:33.443</time></trkpt><trkpt lat="56.2767557" lon="44.0119584"><time>2023-09-20T13:25:35.430</time></trkpt><trkpt lat="56.2767065" lon="44.0120335"><time>2023-09-20T13:25:37.443</time></trkpt><trkpt lat="56.2766490" lon="44.0120983"><time>2023-09-20T13:25:39.457</time></trkpt><trkpt lat="56.2765919" lon="44.0121331"><time>2023-09-20T13:25:41.440</time></trkpt><trkpt lat="56.2765429" lon="44.0121449"><time>2023-09-20T13:25:43.470</time></trkpt><trkpt lat="56.2765136" lon="44.0121506"><time>2023-09-20T13:25:44.463</time></trkpt><trkpt lat="56.2764594" lon="44.0121582"><time>2023-09-20T13:25:46.437</time></trkpt><trkpt lat="56.2764033" lon="44.0121676"><time>2023-09-20T13:25:48.470</time></trkpt><trkpt lat="56.2763549" lon="44.0121799"><time>2023-09-20T13:25:50.457</time></trkpt><trkpt lat="56.2762901" lon="44.0122239"><time>2023-09-20T13:25:53.460</time></trkpt><trkpt lat="56.2762332" lon="44.0122764"><time>2023-09-20T13:25:55.473</time></trkpt><trkpt lat="56.2761770" lon="44.0123183"><time>2023-09-20T13:25:57.480</time></trkpt><trkpt lat="56.2761182" lon="44.0123594"><time>2023-09-20T13:25:59.443</time></trkpt><trkpt lat="56.2760622" lon="44.0124070"><time>2023-09-20T13:26:01.457</time></trkpt><trkpt lat="56.2760010" lon="44.0124517"><time>2023-09-20T13:26:03.483</time></trkpt><trkpt lat="56.2759399" lon="44.0125087"><time>2023-09-20T13:26:05.437</time></trkpt><trkpt lat="56.2758884" lon="44.0125624"><time>2023-09-20T13:26:07.450</time></trkpt><trkpt lat="56.2758311" lon="44.0126302"><time>2023-09-20T13:26:09.473</time></trkpt><trkpt lat="56.2757684" lon="44.0127123"><time>2023-09-20T13:26:11.453</time></trkpt><trkpt lat="56.2757076" lon="44.0127665"><time>2023-09-20T13:26:13.517</time></trkpt><trkpt lat="56.2756813" lon="44.0127839"><time>2023-09-20T13:26:14.447</time></trkpt><trkpt lat="56.2756340" lon="44.0128164"><time>2023-09-20T13:26:16.463</time></trkpt><trkpt lat="56.2755817" lon="44.0128489"><time>2023-09-20T13:26:18.503</time></trkpt><trkpt lat="56.2755218" lon="44.0128949"><time>2023-09-20T13:26:20.497</time></trkpt><trkpt lat="56.2754696" lon="44.0129443"><time>2023-09-20T13:26:22.490</time></trkpt><trkpt lat="56.2754209" lon="44.0129990"><time>2023-09-20T13:26:24.447</time></trkpt><trkpt lat="56.2753776" lon="44.0130437"><time>2023-09-20T13:26:26.470</time></trkpt><trkpt lat="56.2753323" lon="44.0130913"><time>2023-09-20T13:26:28.477</time></trkpt><trkpt lat="56.2752938" lon="44.0131340"><time>2023-09-20T13:26:30.447</time></trkpt><trkpt lat="56.2752698" lon="44.0131650"><time>2023-09-20T13:26:31.433</time></trkpt><trkpt lat="56.2752230" lon="44.0132275"><time>2023-09-20T13:26:33.437</time></trkpt><trkpt lat="56.2751670" lon="44.0133427"><time>2023-09-20T13:26:35.437</time></trkpt><trkpt lat="56.2751064" lon="44.0134286"><time>2023-09-20T13:26:37.433</time></trkpt><trkpt lat="56.2750434" lon="44.0134944"><time>2023-09-20T13:26:39.460</time></trkpt><trkpt lat="56.2749867" lon="44.0135428"><time>2023-09-20T13:26:41.493</time></trkpt><trkpt lat="56.2749867" lon="44.0135428"><time>2023-09-20T13:26:41.547</time></trkpt><trkpt lat="56.2749459" lon="44.0135894"><time>2023-09-20T13:26:43.473</time></trkpt><trkpt lat="56.2749353" lon="44.0136136"><time>2023-09-20T13:26:44.447</time></trkpt><trkpt lat="56.2749269" lon="44.0137108"><time>2023-09-20T13:26:53.450</time></trkpt><trkpt lat="56.2749373" lon="44.0138214"><time>2023-09-20T13:26:56.437</time></trkpt><trkpt lat="56.2749475" lon="44.0139005"><time>2023-09-20T13:26:58.443</time></trkpt><trkpt lat="56.2749606" lon="44.0139872"><time>2023-09-20T13:27:00.433</time></trkpt><trkpt lat="56.2749717" lon="44.0140680"><time>2023-09-20T13:27:02.450</time></trkpt><trkpt lat="56.2750098" lon="44.0141592"><time>2023-09-20T13:27:05.437</time></trkpt><trkpt lat="56.2750593" lon="44.0142261"><time>2023-09-20T13:27:08.437</time></trkpt><trkpt lat="56.2750980" lon="44.0142969"><time>2023-09-20T13:27:11.463</time></trkpt><trkpt lat="56.2751223" lon="44.0143743"><time>2023-09-20T13:27:19.447</time></trkpt><trkpt lat="56.2751364" lon="44.0144518"><time>2023-09-20T13:27:31.460</time></trkpt><trkpt lat="56.2751437" lon="44.0145319"><time>2023-09-20T13:27:43.440</time></trkpt><trkpt lat="56.2751506" lon="44.0146118"><time>2023-09-20T13:27:57.453</time></trkpt><trkpt lat="56.2751641" lon="44.0146904"><time>2023-09-20T13:28:01.450</time></trkpt><trkpt lat="56.2751582" lon="44.0147857"><time>2023-09-20T13:28:04.417</time></trkpt><trkpt lat="56.2751623" lon="44.0148765"><time>2023-09-20T13:28:07.467</time></trkpt><trkpt lat="56.2751916" lon="44.0149630"><time>2023-09-20T13:28:14.443</time></trkpt><trkpt lat="56.2752168" lon="44.0150369"><time>2023-09-20T13:28:19.440</time></trkpt><trkpt lat="56.2752563" lon="44.0150804"><time>2023-09-20T13:28:25.453</time></trkpt><trkpt lat="56.2753032" lon="44.0150967"><time>2023-09-20T13:28:29.453</time></trkpt><trkpt lat="56.2753438" lon="44.0151421"><time>2023-09-20T13:28:34.470</time></trkpt><trkpt lat="56.2753952" lon="44.0151617"><time>2023-09-20T13:28:38.437</time></trkpt><trkpt lat="56.2754462" lon="44.0151886"><time>2023-09-20T13:28:42.413</time></trkpt><trkpt lat="56.2754896" lon="44.0152405"><time>2023-09-20T13:28:48.447</time></trkpt><trkpt lat="56.2755431" lon="44.0152675"><time>2023-09-20T13:28:53.437</time></trkpt><trkpt lat="56.2755865" lon="44.0152965"><time>2023-09-20T13:28:57.443</time></trkpt><trkpt lat="56.2756305" lon="44.0153407"><time>2023-09-20T13:29:02.443</time></trkpt><trkpt lat="56.2756749" lon="44.0153975"><time>2023-09-20T13:29:06.447</time></trkpt><trkpt lat="56.2757184" lon="44.0154457"><time>2023-09-20T13:29:10.447</time></trkpt><trkpt lat="56.2757588" lon="44.0154863"><time>2023-09-20T13:29:14.447</time></trkpt><trkpt lat="56.2758027" lon="44.0155062"><time>2023-09-20T13:29:17.443</time></trkpt><trkpt lat="56.2758600" lon="44.0155242"><time>2023-09-20T13:29:21.510</time></trkpt><trkpt lat="56.2759080" lon="44.0155555"><time>2023-09-20T13:29:24.407</time></trkpt><trkpt lat="56.2759450" lon="44.0156141"><time>2023-09-20T13:29:26.417</time></trkpt><trkpt lat="56.2759829" lon="44.0156790"><time>2023-09-20T13:29:28.437</time></trkpt><trkpt lat="56.2760274" lon="44.0157171"><time>2023-09-20T13:29:30.437</time></trkpt><trkpt lat="56.2760852" lon="44.0157689"><time>2023-09-20T13:29:32.443</time></trkpt><trkpt lat="56.2761275" lon="44.0158177"><time>2023-09-20T13:29:34.440</time></trkpt><trkpt lat="56.2761661" lon="44.0158931"><time>2023-09-20T13:29:37.460</time></trkpt><trkpt lat="56.2762103" lon="44.0159807"><time>2023-09-20T13:29:40.457</time></trkpt><trkpt lat="56.2762415" lon="44.0160430"><time>2023-09-20T13:29:42.417</time></trkpt><trkpt lat="56.2762750" lon="44.0161117"><time>2023-09-20T13:29:44.450</time></trkpt><trkpt lat="56.2763051" lon="44.0161748"><time>2023-09-20T13:29:46.417</time></trkpt><trkpt lat="56.2763353" lon="44.0162370"><time>2023-09-20T13:29:48.450</time></trkpt><trkpt lat="56.2763737" lon="44.0162982"><time>2023-09-20T13:29:51.453</time></trkpt><trkpt lat="56.2764151" lon="44.0163734"><time>2023-09-20T13:29:54.447</time></trkpt><trkpt lat="56.2764519" lon="44.0164318"><time>2023-09-20T13:29:56.433</time></trkpt><trkpt lat="56.2765006" lon="44.0164996"><time>2023-09-20T13:29:59.447</time></trkpt><trkpt lat="56.2765540" lon="44.0165583"><time>2023-09-20T13:30:02.443</time></trkpt><trkpt lat="56.2766006" lon="44.0166195"><time>2023-09-20T13:30:05.447</time></trkpt><trkpt lat="56.2766462" lon="44.0166772"><time>2023-09-20T13:30:08.413</time></trkpt><trkpt lat="56.2766909" lon="44.0167418"><time>2023-09-20T13:30:11.453</time></trkpt><trkpt lat="56.2766571" lon="44.0166883"><time>2023-09-20T13:30:24.450</time></trkpt><trkpt lat="56.2766059" lon="44.0166424"><time>2023-09-20T13:30:28.437</time></trkpt><trkpt lat="56.2765625" lon="44.0165799"><time>2023-09-20T13:30:32.447</time></trkpt><trkpt lat="56.2765169" lon="44.0166350"><time>2023-09-20T13:30:37.447</time></trkpt><trkpt lat="56.2764961" lon="44.0167557"><time>2023-09-20T13:30:40.457</time></trkpt><trkpt lat="56.2764870" lon="44.0168448"><time>2023-09-20T13:30:42.467</time></trkpt><trkpt lat="56.2764854" lon="44.0169291"><time>2023-09-20T13:30:44.460</time></trkpt><trkpt lat="56.2764962" lon="44.0170116"><time>2023-09-20T13:30:46.427</time></trkpt><trkpt lat="56.2765173" lon="44.0170882"><time>2023-09-20T13:30:48.463</time></trkpt><trkpt lat="56.2765508" lon="44.0171521"><time>2023-09-20T13:30:50.473</time></trkpt><trkpt lat="56.2765778" lon="44.0172256"><time>2023-09-20T13:30:52.470</time></trkpt><trkpt lat="56.2766068" lon="44.0173118"><time>2023-09-20T13:30:54.457</time></trkpt><trkpt lat="56.2766309" lon="44.0173887"><time>2023-09-20T13:30:56.420</time></trkpt><trkpt lat="56.2766528" lon="44.0174815"><time>2023-09-20T13:30:58.453</time></trkpt><trkpt lat="56.2767063" lon="44.0175520"><time>2023-09-20T13:31:00.460</time></trkpt><trkpt lat="56.2767552" lon="44.0175958"><time>2023-09-20T13:31:02.450</time></trkpt><trkpt lat="56.2768099" lon="44.0176335"><time>2023-09-20T13:31:05.457</time></trkpt><trkpt lat="56.2768601" lon="44.0176959"><time>2023-09-20T13:31:08.433</time></trkpt><trkpt lat="56.2769205" lon="44.0177321"><time>2023-09-20T13:31:11.440</time></trkpt><trkpt lat="56.2769648" lon="44.0177667"><time>2023-09-20T13:31:13.433</time></trkpt><trkpt lat="56.2770072" lon="44.0178002"><time>2023-09-20T13:31:15.463</time></trkpt><trkpt lat="56.2770540" lon="44.0178741"><time>2023-09-20T13:31:18.457</time></trkpt><trkpt lat="56.2770874" lon="44.0179434"><time>2023-09-20T13:31:20.450</time></trkpt><trkpt lat="56.2771414" lon="44.0180168"><time>2023-09-20T13:31:23.427</time></trkpt><trkpt lat="56.2772038" lon="44.0180631"><time>2023-09-20T13:31:26.457</time></trkpt><trkpt lat="56.2772539" lon="44.0181161"><time>2023-09-20T13:31:28.453</time></trkpt><trkpt lat="56.2773091" lon="44.0181908"><time>2023-09-20T13:31:31.447</time></trkpt><trkpt lat="56.2773387" lon="44.0182763"><time>2023-09-20T13:31:33.443</time></trkpt><trkpt lat="56.2773731" lon="44.0183688"><time>2023-09-20T13:31:35.457</time></trkpt><trkpt lat="56.2774145" lon="44.0184360"><time>2023-09-20T13:31:37.450</time></trkpt><trkpt lat="56.2774532" lon="44.0185076"><time>2023-09-20T13:31:39.447</time></trkpt><trkpt lat="56.2775021" lon="44.0185928"><time>2023-09-20T13:31:42.450</time></trkpt><trkpt lat="56.2775333" lon="44.0186536"><time>2023-09-20T13:31:44.447</time></trkpt><trkpt lat="56.2775633" lon="44.0187143"><time>2023-09-20T13:31:46.463</time></trkpt><trkpt lat="56.2775939" lon="44.0187847"><time>2023-09-20T13:31:48.440</time></trkpt><trkpt lat="56.2776278" lon="44.0188650"><time>2023-09-20T13:31:50.443</time></trkpt><trkpt lat="56.2776702" lon="44.0189323"><time>2023-09-20T13:31:52.450</time></trkpt><trkpt lat="56.2777158" lon="44.0190157"><time>2023-09-20T13:31:55.437</time></trkpt><trkpt lat="56.2777469" lon="44.0190839"><time>2023-09-20T13:31:57.440</time></trkpt><trkpt lat="56.2777802" lon="44.0191545"><time>2023-09-20T13:31:59.453</time></trkpt><trkpt lat="56.2778190" lon="44.0192188"><time>2023-09-20T13:32:01.440</time></trkpt><trkpt lat="56.2778575" lon="44.0192778"><time>2023-09-20T13:32:03.437</time></trkpt><trkpt lat="56.2778907" lon="44.0193370"><time>2023-09-20T13:32:05.453</time></trkpt><trkpt lat="56.2778509" lon="44.0193976"><time>2023-09-20T13:32:11.447</time></trkpt><trkpt lat="56.2778242" lon="44.0194731"><time>2023-09-20T13:32:14.443</time></trkpt><trkpt lat="56.2777982" lon="44.0195408"><time>2023-09-20T13:32:16.447</time></trkpt><trkpt lat="56.2777951" lon="44.0196222"><time>2023-09-20T13:32:18.447</time></trkpt><trkpt lat="56.2778111" lon="44.0197050"><time>2023-09-20T13:32:20.443</time></trkpt><trkpt lat="56.2778205" lon="44.0197929"><time>2023-09-20T13:32:22.437</time></trkpt><trkpt lat="56.2778279" lon="44.0198883"><time>2023-09-20T13:32:24.447</time></trkpt><trkpt lat="56.2778379" lon="44.0199762"><time>2023-09-20T13:32:26.440</time></trkpt><trkpt lat="56.2778437" lon="44.0200676"><time>2023-09-20T13:32:28.447</time></trkpt><trkpt lat="56.2778468" lon="44.0201509"><time>2023-09-20T13:32:30.460</time></trkpt><trkpt lat="56.2778537" lon="44.0202366"><time>2023-09-20T13:32:32.447</time></trkpt><trkpt lat="56.2778591" lon="44.0203354"><time>2023-09-20T13:32:34.433</time></trkpt><trkpt lat="56.2778653" lon="44.0204320"><time>2023-09-20T13:32:36.453</time></trkpt><trkpt lat="56.2778650" lon="44.0205477"><time>2023-09-20T13:32:39.413</time></trkpt><trkpt lat="56.2778878" lon="44.0206520"><time>2023-09-20T13:32:42.450</time></trkpt><trkpt lat="56.2779128" lon="44.0207306"><time>2023-09-20T13:32:44.420</time></trkpt><trkpt lat="56.2779445" lon="44.0208170"><time>2023-09-20T13:32:46.443</time></trkpt><trkpt lat="56.2779799" lon="44.0208999"><time>2023-09-20T13:32:48.443</time></trkpt><trkpt lat="56.2780187" lon="44.0209857"><time>2023-09-20T13:32:50.453</time></trkpt><trkpt lat="56.2780487" lon="44.0210732"><time>2023-09-20T13:32:52.437</time></trkpt><trkpt lat="56.2780784" lon="44.0211432"><time>2023-09-20T13:32:54.450</time></trkpt><trkpt lat="56.2781111" lon="44.0212084"><time>2023-09-20T13:32:56.447</time></trkpt><trkpt lat="56.2781417" lon="44.0212843"><time>2023-09-20T13:32:58.480</time></trkpt><trkpt lat="56.2781839" lon="44.0213482"><time>2023-09-20T13:33:00.457</time></trkpt><trkpt lat="56.2782263" lon="44.0213918"><time>2023-09-20T13:33:02.457</time></trkpt><trkpt lat="56.2782675" lon="44.0214468"><time>2023-09-20T13:33:04.440</time></trkpt><trkpt lat="56.2783136" lon="44.0215195"><time>2023-09-20T13:33:06.447</time></trkpt><trkpt lat="56.2783552" lon="44.0215742"><time>2023-09-20T13:33:08.470</time></trkpt><trkpt lat="56.2783930" lon="44.0216390"><time>2023-09-20T13:33:10.427</time></trkpt><trkpt lat="56.2784354" lon="44.0217073"><time>2023-09-20T13:33:12.440</time></trkpt><trkpt lat="56.2784794" lon="44.0217752"><time>2023-09-20T13:33:14.457</time></trkpt><trkpt lat="56.2785177" lon="44.0218432"><time>2023-09-20T13:33:16.443</time></trkpt><trkpt lat="56.2785537" lon="44.0219089"><time>2023-09-20T13:33:18.460</time></trkpt><trkpt lat="56.2785922" lon="44.0219846"><time>2023-09-20T13:33:20.447</time></trkpt><trkpt lat="56.2786307" lon="44.0220549"><time>2023-09-20T13:33:22.447</time></trkpt><trkpt lat="56.2786685" lon="44.0221130"><time>2023-09-20T13:33:24.447</time></trkpt><trkpt lat="56.2787052" lon="44.0221725"><time>2023-09-20T13:33:26.430</time></trkpt><trkpt lat="56.2787601" lon="44.0222345"><time>2023-09-20T13:33:29.473</time></trkpt><trkpt lat="56.2788023" lon="44.0222978"><time>2023-09-20T13:33:31.453</time></trkpt><trkpt lat="56.2788396" lon="44.0223849"><time>2023-09-20T13:33:33.447</time></trkpt><trkpt lat="56.2788719" lon="44.0224574"><time>2023-09-20T13:33:35.437</time></trkpt><trkpt lat="56.2789128" lon="44.0225146"><time>2023-09-20T13:33:37.437</time></trkpt><trkpt lat="56.2789559" lon="44.0225802"><time>2023-09-20T13:33:39.443</time></trkpt><trkpt lat="56.2790061" lon="44.0226584"><time>2023-09-20T13:33:41.443</time></trkpt><trkpt lat="56.2790516" lon="44.0227382"><time>2023-09-20T13:33:43.443</time></trkpt><trkpt lat="56.2791059" lon="44.0228139"><time>2023-09-20T13:33:45.453</time></trkpt><trkpt lat="56.2791537" lon="44.0228862"><time>2023-09-20T13:33:47.447</time></trkpt><trkpt lat="56.2792005" lon="44.0229576"><time>2023-09-20T13:33:49.447</time></trkpt><trkpt lat="56.2792484" lon="44.0230293"><time>2023-09-20T13:33:51.440</time></trkpt><trkpt lat="56.2793009" lon="44.0231046"><time>2023-09-20T13:33:53.467</time></trkpt><trkpt lat="56.2793498" lon="44.0231740"><time>2023-09-20T13:33:55.447</time></trkpt><trkpt lat="56.2793910" lon="44.0232546"><time>2023-09-20T13:33:57.450</time></trkpt><trkpt lat="56.2794188" lon="44.0233539"><time>2023-09-20T13:33:59.440</time></trkpt><trkpt lat="56.2794263" lon="44.0234555"><time>2023-09-20T13:34:01.433</time></trkpt><trkpt lat="56.2794220" lon="44.0235581"><time>2023-09-20T13:34:03.467</time></trkpt><trkpt lat="56.2794046" lon="44.0236556"><time>2023-09-20T13:34:05.460</time></trkpt><trkpt lat="56.2793799" lon="44.0237504"><time>2023-09-20T13:34:07.430</time></trkpt><trkpt lat="56.2793549" lon="44.0238425"><time>2023-09-20T13:34:09.447</time></trkpt><trkpt lat="56.2793237" lon="44.0239264"><time>2023-09-20T13:34:11.447</time></trkpt><trkpt lat="56.2792924" lon="44.0240019"><time>2023-09-20T13:34:13.437</time></trkpt><trkpt lat="56.2792674" lon="44.0240815"><time>2023-09-20T13:34:15.447</time></trkpt><trkpt lat="56.2792681" lon="44.0241646"><time>2023-09-20T13:34:17.470</time></trkpt><trkpt lat="56.2792901" lon="44.0242484"><time>2023-09-20T13:34:19.453</time></trkpt><trkpt lat="56.2793282" lon="44.0243298"><time>2023-09-20T13:34:21.447</time></trkpt><trkpt lat="56.2793662" lon="44.0244041"><time>2023-09-20T13:34:23.460</time></trkpt><trkpt lat="56.2794057" lon="44.0244714"><time>2023-09-20T13:34:25.457</time></trkpt><trkpt lat="56.2794370" lon="44.0245501"><time>2023-09-20T13:34:27.443</time></trkpt><trkpt lat="56.2794711" lon="44.0246111"><time>2023-09-20T13:34:29.450</time></trkpt><trkpt lat="56.2795070" lon="44.0246798"><time>2023-09-20T13:34:31.450</time></trkpt><trkpt lat="56.2795481" lon="44.0247518"><time>2023-09-20T13:34:33.463</time></trkpt><trkpt lat="56.2795856" lon="44.0248404"><time>2023-09-20T13:34:35.447</time></trkpt><trkpt lat="56.2796193" lon="44.0249220"><time>2023-09-20T13:34:37.460</time></trkpt><trkpt lat="56.2796625" lon="44.0249819"><time>2023-09-20T13:34:39.477</time></trkpt><trkpt lat="56.2797011" lon="44.0250502"><time>2023-09-20T13:34:41.443</time></trkpt><trkpt lat="56.2797366" lon="44.0251364"><time>2023-09-20T13:34:43.443</time></trkpt><trkpt lat="56.2797631" lon="44.0252242"><time>2023-09-20T13:34:45.463</time></trkpt><trkpt lat="56.2797859" lon="44.0253137"><time>2023-09-20T13:34:47.440</time></trkpt><trkpt lat="56.2798136" lon="44.0254028"><time>2023-09-20T13:34:49.467</time></trkpt><trkpt lat="56.2798429" lon="44.0255083"><time>2023-09-20T13:34:51.463</time></trkpt><trkpt lat="56.2798745" lon="44.0256240"><time>2023-09-20T13:34:53.473</time></trkpt><trkpt lat="56.2799071" lon="44.0257302"><time>2023-09-20T13:34:55.443</time></trkpt><trkpt lat="56.2799437" lon="44.0258182"><time>2023-09-20T13:34:57.430</time></trkpt><trkpt lat="56.2799630" lon="44.0259378"><time>2023-09-20T13:34:59.423</time></trkpt><trkpt lat="56.2800036" lon="44.0260306"><time>2023-09-20T13:35:01.473</time></trkpt><trkpt lat="56.2800413" lon="44.0261025"><time>2023-09-20T13:35:03.450</time></trkpt><trkpt lat="56.2800649" lon="44.0261726"><time>2023-09-20T13:35:05.427</time></trkpt><trkpt lat="56.2800910" lon="44.0262401"><time>2023-09-20T13:35:07.457</time></trkpt><trkpt lat="56.2801222" lon="44.0263277"><time>2023-09-20T13:35:09.453</time></trkpt><trkpt lat="56.2801595" lon="44.0263993"><time>2023-09-20T13:35:11.450</time></trkpt><trkpt lat="56.2802095" lon="44.0264652"><time>2023-09-20T13:35:13.453</time></trkpt><trkpt lat="56.2802577" lon="44.0265210"><time>2023-09-20T13:35:15.437</time></trkpt><trkpt lat="56.2803016" lon="44.0265813"><time>2023-09-20T13:35:17.447</time></trkpt><trkpt lat="56.2803515" lon="44.0266375"><time>2023-09-20T13:35:19.427</time></trkpt><trkpt lat="56.2803852" lon="44.0267056"><time>2023-09-20T13:35:21.453</time></trkpt><trkpt lat="56.2804164" lon="44.0267863"><time>2023-09-20T13:35:23.450</time></trkpt><trkpt lat="56.2804390" lon="44.0268756"><time>2023-09-20T13:35:25.467</time></trkpt><trkpt lat="56.2804556" lon="44.0269652"><time>2023-09-20T13:35:27.447</time></trkpt><trkpt lat="56.2804628" lon="44.0270608"><time>2023-09-20T13:35:29.447</time></trkpt><trkpt lat="56.2804588" lon="44.0271622"><time>2023-09-20T13:35:31.450</time></trkpt><trkpt lat="56.2804591" lon="44.0272647"><time>2023-09-20T13:35:33.457</time></trkpt><trkpt lat="56.2804593" lon="44.0273637"><time>2023-09-20T13:35:35.437</time></trkpt><trkpt lat="56.2804585" lon="44.0274576"><time>2023-09-20T13:35:37.463</time></trkpt><trkpt lat="56.2804528" lon="44.0275531"><time>2023-09-20T13:35:39.460</time></trkpt><trkpt lat="56.2804605" lon="44.0276532"><time>2023-09-20T13:35:41.457</time></trkpt><trkpt lat="56.2804870" lon="44.0277688"><time>2023-09-20T13:35:44.447</time></trkpt><trkpt lat="56.2805140" lon="44.0278478"><time>2023-09-20T13:35:46.423</time></trkpt><trkpt lat="56.2805432" lon="44.0279245"><time>2023-09-20T13:35:48.447</time></trkpt><trkpt lat="56.2805726" lon="44.0279965"><time>2023-09-20T13:35:50.467</time></trkpt><trkpt lat="56.2806152" lon="44.0280758"><time>2023-09-20T13:35:52.417</time></trkpt><trkpt lat="56.2806532" lon="44.0281473"><time>2023-09-20T13:35:54.463</time></trkpt><trkpt lat="56.2806945" lon="44.0282050"><time>2023-09-20T13:35:56.473</time></trkpt><trkpt lat="56.2807358" lon="44.0282581"><time>2023-09-20T13:35:58.453</time></trkpt><trkpt lat="56.2807721" lon="44.0283164"><time>2023-09-20T13:36:00.453</time></trkpt><trkpt lat="56.2808092" lon="44.0283793"><time>2023-09-20T13:36:02.443</time></trkpt><trkpt lat="56.2808471" lon="44.0284463"><time>2023-09-20T13:36:04.437</time></trkpt><trkpt lat="56.2808695" lon="44.0285244"><time>2023-09-20T13:36:06.453</time></trkpt><trkpt lat="56.2809008" lon="44.0286151"><time>2023-09-20T13:36:09.467</time></trkpt><trkpt lat="56.2809398" lon="44.0286962"><time>2023-09-20T13:36:12.450</time></trkpt><trkpt lat="56.2809760" lon="44.0287484"><time>2023-09-20T13:36:14.457</time></trkpt><trkpt lat="56.2810209" lon="44.0288182"><time>2023-09-20T13:36:17.457</time></trkpt><trkpt lat="56.2810478" lon="44.0288999"><time>2023-09-20T13:36:21.423</time></trkpt><trkpt lat="56.2810690" lon="44.0289944"><time>2023-09-20T13:36:24.467</time></trkpt><trkpt lat="56.2810888" lon="44.0290701"><time>2023-09-20T13:36:27.467</time></trkpt><trkpt lat="56.2811034" lon="44.0291527"><time>2023-09-20T13:36:31.403</time></trkpt><trkpt lat="56.2811428" lon="44.0292237"><time>2023-09-20T13:36:35.450</time></trkpt><trkpt lat="56.2811849" lon="44.0292666"><time>2023-09-20T13:36:38.423</time></trkpt><trkpt lat="56.2812295" lon="44.0293087"><time>2023-09-20T13:36:42.447</time></trkpt><trkpt lat="56.2812787" lon="44.0293220"><time>2023-09-20T13:36:45.423</time></trkpt><trkpt lat="56.2813247" lon="44.0293567"><time>2023-09-20T13:36:48.453</time></trkpt><trkpt lat="56.2813676" lon="44.0293967"><time>2023-09-20T13:36:51.443</time></trkpt><trkpt lat="56.2814256" lon="44.0294236"><time>2023-09-20T13:36:54.457</time></trkpt><trkpt lat="56.2814735" lon="44.0294502"><time>2023-09-20T13:36:57.447</time></trkpt><trkpt lat="56.2815266" lon="44.0294555"><time>2023-09-20T13:37:01.453</time></trkpt><trkpt lat="56.2815852" lon="44.0294922"><time>2023-09-20T13:37:05.470</time></trkpt><trkpt lat="56.2816307" lon="44.0295336"><time>2023-09-20T13:37:08.463</time></trkpt><trkpt lat="56.2816697" lon="44.0295822"><time>2023-09-20T13:37:11.450</time></trkpt><trkpt lat="56.2817190" lon="44.0296245"><time>2023-09-20T13:37:15.457</time></trkpt><trkpt lat="56.2817730" lon="44.0296416"><time>2023-09-20T13:37:19.440</time></trkpt><trkpt lat="56.2818249" lon="44.0296653"><time>2023-09-20T13:37:23.473</time></trkpt><trkpt lat="56.2818630" lon="44.0297179"><time>2023-09-20T13:37:27.450</time></trkpt><trkpt lat="56.2819119" lon="44.0297440"><time>2023-09-20T13:37:30.467</time></trkpt><trkpt lat="56.2819561" lon="44.0297848"><time>2023-09-20T13:37:33.443</time></trkpt><trkpt lat="56.2820048" lon="44.0298161"><time>2023-09-20T13:37:37.443</time></trkpt><trkpt lat="56.2820697" lon="44.0298437"><time>2023-09-20T13:37:41.433</time></trkpt><trkpt lat="56.2821239" lon="44.0298618"><time>2023-09-20T13:37:44.437</time></trkpt><trkpt lat="56.2821756" lon="44.0298903"><time>2023-09-20T13:37:47.450</time></trkpt><trkpt lat="56.2822251" lon="44.0299187"><time>2023-09-20T13:37:51.443</time></trkpt><trkpt lat="56.2822687" lon="44.0299435"><time>2023-09-20T13:37:54.483</time></trkpt><trkpt lat="56.2822867" lon="44.0299500"><time>2023-09-20T13:37:55.433</time></trkpt><trkpt lat="56.2823404" lon="44.0299657"><time>2023-09-20T13:37:59.447</time></trkpt><trkpt lat="56.2823849" lon="44.0299878"><time>2023-09-20T13:38:02.480</time></trkpt><trkpt lat="56.2824354" lon="44.0300255"><time>2023-09-20T13:38:05.437</time></trkpt><trkpt lat="56.2824816" lon="44.0300687"><time>2023-09-20T13:38:08.437</time></trkpt><trkpt lat="56.2825341" lon="44.0301115"><time>2023-09-20T13:38:12.457</time></trkpt><trkpt lat="56.2825783" lon="44.0301364"><time>2023-09-20T13:38:15.443</time></trkpt><trkpt lat="56.2826306" lon="44.0301338"><time>2023-09-20T13:38:19.447</time></trkpt><trkpt lat="56.2826787" lon="44.0300905"><time>2023-09-20T13:38:23.453</time></trkpt><trkpt lat="56.2827191" lon="44.0300305"><time>2023-09-20T13:38:26.460</time></trkpt><trkpt lat="56.2827738" lon="44.0299837"><time>2023-09-20T13:38:29.470</time></trkpt><trkpt lat="56.2828256" lon="44.0299499"><time>2023-09-20T13:38:32.463</time></trkpt><trkpt lat="56.2828722" lon="44.0299116"><time>2023-09-20T13:38:35.473</time></trkpt><trkpt lat="56.2829206" lon="44.0298882"><time>2023-09-20T13:38:38.467</time></trkpt><trkpt lat="56.2829693" lon="44.0298550"><time>2023-09-20T13:38:41.463</time></trkpt><trkpt lat="56.2830139" lon="44.0298242"><time>2023-09-20T13:38:44.417</time></trkpt><trkpt lat="56.2830561" lon="44.0297909"><time>2023-09-20T13:38:46.423</time></trkpt><trkpt lat="56.2831096" lon="44.0297584"><time>2023-09-20T13:38:48.440</time></trkpt><trkpt lat="56.2831550" lon="44.0297302"><time>2023-09-20T13:38:51.447</time></trkpt><trkpt lat="56.2832116" lon="44.0296930"><time>2023-09-20T13:38:54.433</time></trkpt><trkpt lat="56.2832600" lon="44.0296727"><time>2023-09-20T13:38:56.450</time></trkpt><trkpt lat="56.2832971" lon="44.0296272"><time>2023-09-20T13:38:58.463</time></trkpt><trkpt lat="56.2833124" lon="44.0295940"><time>2023-09-20T13:38:59.437</time></trkpt><trkpt lat="56.2833617" lon="44.0295083"><time>2023-09-20T13:39:02.437</time></trkpt><trkpt lat="56.2834039" lon="44.0294417"><time>2023-09-20T13:39:04.437</time></trkpt><trkpt lat="56.2834460" lon="44.0293760"><time>2023-09-20T13:39:06.440</time></trkpt><trkpt lat="56.2834829" lon="44.0293096"><time>2023-09-20T13:39:08.450</time></trkpt><trkpt lat="56.2835174" lon="44.0292383"><time>2023-09-20T13:39:10.440</time></trkpt><trkpt lat="56.2835432" lon="44.0291706"><time>2023-09-20T13:39:12.447</time></trkpt><trkpt lat="56.2835784" lon="44.0290898"><time>2023-09-20T13:39:15.463</time></trkpt><trkpt lat="56.2836212" lon="44.0289948"><time>2023-09-20T13:39:18.483</time></trkpt><trkpt lat="56.2836383" lon="44.0289586"><time>2023-09-20T13:39:19.453</time></trkpt><trkpt lat="56.2836804" lon="44.0288640"><time>2023-09-20T13:39:22.450</time></trkpt><trkpt lat="56.2837152" lon="44.0287585"><time>2023-09-20T13:39:25.430</time></trkpt><trkpt lat="56.2837367" lon="44.0286803"><time>2023-09-20T13:39:27.433</time></trkpt><trkpt lat="56.2837659" lon="44.0285774"><time>2023-09-20T13:39:30.457</time></trkpt><trkpt lat="56.2837815" lon="44.0284810"><time>2023-09-20T13:39:33.460</time></trkpt><trkpt lat="56.2837815" lon="44.0284810"><time>2023-09-20T13:39:33.553</time></trkpt><trkpt lat="56.2837768" lon="44.0283871"><time>2023-09-20T13:39:36.477</time></trkpt><trkpt lat="56.2837736" lon="44.0283582"><time>2023-09-20T13:39:37.433</time></trkpt><trkpt lat="56.2837736" lon="44.0282695"><time>2023-09-20T13:39:40.460</time></trkpt><trkpt lat="56.2837660" lon="44.0281837"><time>2023-09-20T13:39:43.410</time></trkpt><trkpt lat="56.2837549" lon="44.0280973"><time>2023-09-20T13:39:46.447</time></trkpt><trkpt lat="56.2837378" lon="44.0280111"><time>2023-09-20T13:39:49.420</time></trkpt><trkpt lat="56.2837109" lon="44.0279427"><time>2023-09-20T13:39:51.437</time></trkpt><trkpt lat="56.2836861" lon="44.0278685"><time>2023-09-20T13:39:54.453</time></trkpt><trkpt lat="56.2836664" lon="44.0277870"><time>2023-09-20T13:39:57.437</time></trkpt><trkpt lat="56.2836387" lon="44.0276744"><time>2023-09-20T13:40:00.467</time></trkpt><trkpt lat="56.2836252" lon="44.0276379"><time>2023-09-20T13:40:01.443</time></trkpt><trkpt lat="56.2836082" lon="44.0275457"><time>2023-09-20T13:40:03.443</time></trkpt><trkpt lat="56.2835989" lon="44.0274347"><time>2023-09-20T13:40:06.437</time></trkpt><trkpt lat="56.2835867" lon="44.0273235"><time>2023-09-20T13:40:09.433</time></trkpt><trkpt lat="56.2835785" lon="44.0272202"><time>2023-09-20T13:40:12.453</time></trkpt><trkpt lat="56.2835776" lon="44.0271273"><time>2023-09-20T13:40:15.463</time></trkpt><trkpt lat="56.2835583" lon="44.0270310"><time>2023-09-20T13:40:18.470</time></trkpt><trkpt lat="56.2835355" lon="44.0269185"><time>2023-09-20T13:40:21.463</time></trkpt><trkpt lat="56.2835050" lon="44.0268151"><time>2023-09-20T13:40:24.490</time></trkpt><trkpt lat="56.2834820" lon="44.0267129"><time>2023-09-20T13:40:27.457</time></trkpt><trkpt lat="56.2834768" lon="44.0266177"><time>2023-09-20T13:40:30.473</time></trkpt><trkpt lat="56.2834657" lon="44.0265328"><time>2023-09-20T13:40:32.467</time></trkpt><trkpt lat="56.2834438" lon="44.0264428"><time>2023-09-20T13:40:35.453</time></trkpt><trkpt lat="56.2834118" lon="44.0263533"><time>2023-09-20T13:40:38.450</time></trkpt><trkpt lat="56.2833882" lon="44.0262623"><time>2023-09-20T13:40:41.497</time></trkpt><trkpt lat="56.2833734" lon="44.0261571"><time>2023-09-20T13:40:44.493</time></trkpt><trkpt lat="56.2833689" lon="44.0261353"><time>2023-09-20T13:40:45.487</time></trkpt><trkpt lat="56.2833584" lon="44.0260514"><time>2023-09-20T13:40:48.453</time></trkpt><trkpt lat="56.2833448" lon="44.0259719"><time>2023-09-20T13:40:50.497</time></trkpt><trkpt lat="56.2833388" lon="44.0258906"><time>2023-09-20T13:40:52.460</time></trkpt><trkpt lat="56.2833204" lon="44.0257995"><time>2023-09-20T13:40:54.410</time></trkpt><trkpt lat="56.2832916" lon="44.0257028"><time>2023-09-20T13:40:56.430</time></trkpt><trkpt lat="56.2832537" lon="44.0256255"><time>2023-09-20T13:40:58.443</time></trkpt><trkpt lat="56.2832217" lon="44.0255556"><time>2023-09-20T13:41:00.433</time></trkpt><trkpt lat="56.2832011" lon="44.0254705"><time>2023-09-20T13:41:02.477</time></trkpt><trkpt lat="56.2831844" lon="44.0254227"><time>2023-09-20T13:41:03.453</time></trkpt><trkpt lat="56.2831586" lon="44.0253251"><time>2023-09-20T13:41:06.453</time></trkpt><trkpt lat="56.2831227" lon="44.0252043"><time>2023-09-20T13:41:08.457</time></trkpt><trkpt lat="56.2830942" lon="44.0251348"><time>2023-09-20T13:41:10.460</time></trkpt><trkpt lat="56.2830646" lon="44.0250700"><time>2023-09-20T13:41:11.440</time></trkpt><trkpt lat="56.2830434" lon="44.0249979"><time>2023-09-20T13:41:13.413</time></trkpt><trkpt lat="56.2830145" lon="44.0249061"><time>2023-09-20T13:41:16.473</time></trkpt><trkpt lat="56.2830145" lon="44.0249061"><time>2023-09-20T13:41:16.533</time></trkpt><trkpt lat="56.2830032" lon="44.0248244"><time>2023-09-20T13:41:19.487</time></trkpt><trkpt lat="56.2830008" lon="44.0247968"><time>2023-09-20T13:41:20.437</time></trkpt><trkpt lat="56.2829917" lon="44.0246988"><time>2023-09-20T13:41:23.457</time></trkpt><trkpt lat="56.2829771" lon="44.0246149"><time>2023-09-20T13:41:27.447</time></trkpt><trkpt lat="56.2830139" lon="44.0245605"><time>2023-09-20T13:41:34.457</time></trkpt><trkpt lat="56.2830560" lon="44.0244985"><time>2023-09-20T13:41:39.417</time></trkpt><trkpt lat="56.2830099" lon="44.0245112"><time>2023-09-20T13:41:46.440</time></trkpt><trkpt lat="56.2829576" lon="44.0244985"><time>2023-09-20T13:41:50.450</time></trkpt><trkpt lat="56.2829240" lon="44.0244197"><time>2023-09-20T13:41:55.420</time></trkpt><trkpt lat="56.2829219" lon="44.0243356"><time>2023-09-20T13:41:59.443</time></trkpt><trkpt lat="56.2829084" lon="44.0242284"><time>2023-09-20T13:42:03.440</time></trkpt><trkpt lat="56.2829111" lon="44.0243207"><time>2023-09-20T13:42:17.457</time></trkpt><trkpt lat="56.2829544" lon="44.0243885"><time>2023-09-20T13:42:21.447</time></trkpt><trkpt lat="56.2829983" lon="44.0244118"><time>2023-09-20T13:42:24.443</time></trkpt><trkpt lat="56.2830481" lon="44.0244346"><time>2023-09-20T13:42:27.437</time></trkpt><trkpt lat="56.2830871" lon="44.0243875"><time>2023-09-20T13:42:31.460</time></trkpt><trkpt lat="56.2831197" lon="44.0243218"><time>2023-09-20T13:42:34.440</time></trkpt><trkpt lat="56.2831470" lon="44.0242311"><time>2023-09-20T13:42:37.437</time></trkpt><trkpt lat="56.2831692" lon="44.0241377"><time>2023-09-20T13:42:40.437</time></trkpt><trkpt lat="56.2831882" lon="44.0240509"><time>2023-09-20T13:42:43.443</time></trkpt><trkpt lat="56.2832179" lon="44.0239732"><time>2023-09-20T13:42:47.440</time></trkpt><trkpt lat="56.2832471" lon="44.0239063"><time>2023-09-20T13:42:50.430</time></trkpt><trkpt lat="56.2832770" lon="44.0238288"><time>2023-09-20T13:42:53.440</time></trkpt><trkpt lat="56.2833058" lon="44.0237656"><time>2023-09-20T13:42:56.427</time></trkpt><trkpt lat="56.2833446" lon="44.0237167"><time>2023-09-20T13:42:59.437</time></trkpt><trkpt lat="56.2833631" lon="44.0236373"><time>2023-09-20T13:43:03.443</time></trkpt><trkpt lat="56.2834000" lon="44.0235573"><time>2023-09-20T13:43:07.440</time></trkpt><trkpt lat="56.2834306" lon="44.0234925"><time>2023-09-20T13:43:10.437</time></trkpt><trkpt lat="56.2834715" lon="44.0234152"><time>2023-09-20T13:43:14.443</time></trkpt><trkpt lat="56.2835057" lon="44.0233541"><time>2023-09-20T13:43:18.450</time></trkpt><trkpt lat="56.2835356" lon="44.0232850"><time>2023-09-20T13:43:23.430</time></trkpt><trkpt lat="56.2835652" lon="44.0232104"><time>2023-09-20T13:43:29.430</time></trkpt><trkpt lat="56.2836021" lon="44.0231533"><time>2023-09-20T13:43:36.440</time></trkpt><trkpt lat="56.2835779" lon="44.0232219"><time>2023-09-20T13:43:46.427</time></trkpt><trkpt lat="56.2835529" lon="44.0233056"><time>2023-09-20T13:43:53.427</time></trkpt><trkpt lat="56.2835341" lon="44.0234001"><time>2023-09-20T13:43:58.443</time></trkpt><trkpt lat="56.2835111" lon="44.0234786"><time>2023-09-20T13:44:01.443</time></trkpt><trkpt lat="56.2834861" lon="44.0235578"><time>2023-09-20T13:44:04.427</time></trkpt><trkpt lat="56.2834908" lon="44.0236485"><time>2023-09-20T13:44:07.427</time></trkpt><trkpt lat="56.2835378" lon="44.0236690"><time>2023-09-20T13:44:13.430</time></trkpt><trkpt lat="56.2835800" lon="44.0237008"><time>2023-09-20T13:44:16.447</time></trkpt><trkpt lat="56.2836384" lon="44.0237457"><time>2023-09-20T13:44:19.417</time></trkpt><trkpt lat="56.2836744" lon="44.0237941"><time>2023-09-20T13:44:21.400</time></trkpt><trkpt lat="56.2837246" lon="44.0238447"><time>2023-09-20T13:44:23.407</time></trkpt><trkpt lat="56.2837701" lon="44.0238955"><time>2023-09-20T13:44:26.397</time></trkpt><trkpt lat="56.2838117" lon="44.0239549"><time>2023-09-20T13:44:29.447</time></trkpt><trkpt lat="56.2838565" lon="44.0239999"><time>2023-09-20T13:44:32.443</time></trkpt><trkpt lat="56.2839000" lon="44.0240334"><time>2023-09-20T13:44:34.447</time></trkpt><trkpt lat="56.2839423" lon="44.0240773"><time>2023-09-20T13:44:36.433</time></trkpt><trkpt lat="56.2839922" lon="44.0241294"><time>2023-09-20T13:44:39.440</time></trkpt><trkpt lat="56.2840445" lon="44.0240917"><time>2023-09-20T13:44:44.447</time></trkpt><trkpt lat="56.2840917" lon="44.0240692"><time>2023-09-20T13:44:47.427</time></trkpt><trkpt lat="56.2841474" lon="44.0240442"><time>2023-09-20T13:44:50.437</time></trkpt><trkpt lat="56.2842127" lon="44.0240437"><time>2023-09-20T13:44:53.437</time></trkpt><trkpt lat="56.2842588" lon="44.0240555"><time>2023-09-20T13:44:56.427</time></trkpt><trkpt lat="56.2843161" lon="44.0240425"><time>2023-09-20T13:44:59.467</time></trkpt><trkpt lat="56.2843686" lon="44.0240418"><time>2023-09-20T13:45:02.443</time></trkpt><trkpt lat="56.2844286" lon="44.0240422"><time>2023-09-20T13:45:05.463</time></trkpt><trkpt lat="56.2844743" lon="44.0240336"><time>2023-09-20T13:45:07.433</time></trkpt><trkpt lat="56.2845348" lon="44.0240135"><time>2023-09-20T13:45:10.417</time></trkpt><trkpt lat="56.2845803" lon="44.0240441"><time>2023-09-20T13:45:13.427</time></trkpt><trkpt lat="56.2846417" lon="44.0240584"><time>2023-09-20T13:45:16.443</time></trkpt><trkpt lat="56.2846934" lon="44.0240477"><time>2023-09-20T13:45:18.437</time></trkpt><trkpt lat="56.2847385" lon="44.0240619"><time>2023-09-20T13:45:20.450</time></trkpt><trkpt lat="56.2847907" lon="44.0240612"><time>2023-09-20T13:45:22.443</time></trkpt><trkpt lat="56.2848374" lon="44.0240772"><time>2023-09-20T13:45:24.447</time></trkpt><trkpt lat="56.2848894" lon="44.0240871"><time>2023-09-20T13:45:26.453</time></trkpt><trkpt lat="56.2849514" lon="44.0240924"><time>2023-09-20T13:45:29.447</time></trkpt><trkpt lat="56.2850165" lon="44.0241328"><time>2023-09-20T13:45:32.447</time></trkpt><trkpt lat="56.2850710" lon="44.0241605"><time>2023-09-20T13:45:34.443</time></trkpt><trkpt lat="56.2851219" lon="44.0241974"><time>2023-09-20T13:45:36.443</time></trkpt><trkpt lat="56.2851650" lon="44.0242260"><time>2023-09-20T13:45:38.433</time></trkpt><trkpt lat="56.2852133" lon="44.0242539"><time>2023-09-20T13:45:40.440</time></trkpt><trkpt lat="56.2852734" lon="44.0242436"><time>2023-09-20T13:45:43.443</time></trkpt><trkpt lat="56.2853307" lon="44.0242629"><time>2023-09-20T13:45:46.457</time></trkpt><trkpt lat="56.2853762" lon="44.0242746"><time>2023-09-20T13:45:48.467</time></trkpt><trkpt lat="56.2854276" lon="44.0243060"><time>2023-09-20T13:45:51.407</time></trkpt><trkpt lat="56.2854878" lon="44.0243307"><time>2023-09-20T13:45:53.420</time></trkpt><trkpt lat="56.2855323" lon="44.0243719"><time>2023-09-20T13:45:55.430</time></trkpt><trkpt lat="56.2855825" lon="44.0244012"><time>2023-09-20T13:45:58.443</time></trkpt><trkpt lat="56.2856257" lon="44.0244279"><time>2023-09-20T13:46:01.440</time></trkpt><trkpt lat="56.2856712" lon="44.0244383"><time>2023-09-20T13:46:04.450</time></trkpt><trkpt lat="56.2857178" lon="44.0244804"><time>2023-09-20T13:46:07.430</time></trkpt><trkpt lat="56.2857797" lon="44.0244996"><time>2023-09-20T13:46:11.427</time></trkpt><trkpt lat="56.2858269" lon="44.0245115"><time>2023-09-20T13:46:14.437</time></trkpt><trkpt lat="56.2858787" lon="44.0245413"><time>2023-09-20T13:46:18.417</time></trkpt><trkpt lat="56.2859211" lon="44.0245982"><time>2023-09-20T13:46:22.420</time></trkpt><trkpt lat="56.2859688" lon="44.0246235"><time>2023-09-20T13:46:27.440</time></trkpt><trkpt lat="56.2860054" lon="44.0246893"><time>2023-09-20T13:46:32.423</time></trkpt><trkpt lat="56.2860460" lon="44.0247530"><time>2023-09-20T13:46:38.440</time></trkpt><trkpt lat="56.2860878" lon="44.0247967"><time>2023-09-20T13:46:44.457</time></trkpt><trkpt lat="56.2861122" lon="44.0248734"><time>2023-09-20T13:46:52.450</time></trkpt><trkpt lat="56.2861426" lon="44.0249402"><time>2023-09-20T13:46:59.437</time></trkpt><trkpt lat="56.2861755" lon="44.0249964"><time>2023-09-20T13:47:05.453</time></trkpt><trkpt lat="56.2862182" lon="44.0250640"><time>2023-09-20T13:47:10.443</time></trkpt><trkpt lat="56.2862519" lon="44.0251188"><time>2023-09-20T13:47:13.453</time></trkpt><trkpt lat="56.2862894" lon="44.0251696"><time>2023-09-20T13:47:16.430</time></trkpt><trkpt lat="56.2863306" lon="44.0252308"><time>2023-09-20T13:47:19.437</time></trkpt><trkpt lat="56.2863803" lon="44.0252959"><time>2023-09-20T13:47:22.440</time></trkpt><trkpt lat="56.2864259" lon="44.0253358"><time>2023-09-20T13:47:24.457</time></trkpt><trkpt lat="56.2864706" lon="44.0253924"><time>2023-09-20T13:47:26.453</time></trkpt><trkpt lat="56.2865145" lon="44.0254434"><time>2023-09-20T13:47:28.463</time></trkpt><trkpt lat="56.2865664" lon="44.0254795"><time>2023-09-20T13:47:31.457</time></trkpt><trkpt lat="56.2866190" lon="44.0255361"><time>2023-09-20T13:47:34.407</time></trkpt><trkpt lat="56.2866835" lon="44.0256189"><time>2023-09-20T13:47:36.417</time></trkpt><trkpt lat="56.2867411" lon="44.0257197"><time>2023-09-20T13:47:38.437</time></trkpt><trkpt lat="56.2867871" lon="44.0257945"><time>2023-09-20T13:47:41.457</time></trkpt><trkpt lat="56.2868344" lon="44.0258600"><time>2023-09-20T13:47:44.463</time></trkpt><trkpt lat="56.2868675" lon="44.0259240"><time>2023-09-20T13:47:46.450</time></trkpt><trkpt lat="56.2869044" lon="44.0259722"><time>2023-09-20T13:47:48.463</time></trkpt><trkpt lat="56.2869529" lon="44.0260106"><time>2023-09-20T13:47:51.423</time></trkpt><trkpt lat="56.2869990" lon="44.0260593"><time>2023-09-20T13:47:53.437</time></trkpt><trkpt lat="56.2870484" lon="44.0261043"><time>2023-09-20T13:47:55.437</time></trkpt><trkpt lat="56.2871002" lon="44.0261543"><time>2023-09-20T13:47:57.463</time></trkpt><trkpt lat="56.2871482" lon="44.0261891"><time>2023-09-20T13:47:59.433</time></trkpt><trkpt lat="56.2871981" lon="44.0262288"><time>2023-09-20T13:48:01.433</time></trkpt><trkpt lat="56.2872527" lon="44.0262739"><time>2023-09-20T13:48:03.417</time></trkpt><trkpt lat="56.2872787" lon="44.0262969"><time>2023-09-20T13:48:04.457</time></trkpt><trkpt lat="56.2873223" lon="44.0263298"><time>2023-09-20T13:48:06.447</time></trkpt><trkpt lat="56.2873786" lon="44.0263559"><time>2023-09-20T13:48:09.447</time></trkpt><trkpt lat="56.2874310" lon="44.0263555"><time>2023-09-20T13:48:12.413</time></trkpt><trkpt lat="56.2874816" lon="44.0263092"><time>2023-09-20T13:48:15.430</time></trkpt><trkpt lat="56.2875370" lon="44.0262732"><time>2023-09-20T13:48:17.427</time></trkpt><trkpt lat="56.2875837" lon="44.0262539"><time>2023-09-20T13:48:19.417</time></trkpt><trkpt lat="56.2876415" lon="44.0262567"><time>2023-09-20T13:48:22.447</time></trkpt><trkpt lat="56.2876969" lon="44.0262586"><time>2023-09-20T13:48:26.437</time></trkpt><trkpt lat="56.2877547" lon="44.0262805"><time>2023-09-20T13:48:29.440</time></trkpt><trkpt lat="56.2878026" lon="44.0262952"><time>2023-09-20T13:48:31.430</time></trkpt><trkpt lat="56.2878538" lon="44.0263212"><time>2023-09-20T13:48:33.430</time></trkpt><trkpt lat="56.2879107" lon="44.0263631"><time>2023-09-20T13:48:35.457</time></trkpt><trkpt lat="56.2879588" lon="44.0264041"><time>2023-09-20T13:48:37.430</time></trkpt><trkpt lat="56.2880175" lon="44.0264351"><time>2023-09-20T13:48:39.437</time></trkpt><trkpt lat="56.2880812" lon="44.0264567"><time>2023-09-20T13:48:41.417</time></trkpt><trkpt lat="56.2881439" lon="44.0264694"><time>2023-09-20T13:48:43.463</time></trkpt><trkpt lat="56.2881742" lon="44.0264742"><time>2023-09-20T13:48:44.453</time></trkpt><trkpt lat="56.2882188" lon="44.0264879"><time>2023-09-20T13:48:46.443</time></trkpt><trkpt lat="56.2882655" lon="44.0264956"><time>2023-09-20T13:48:48.447</time></trkpt><trkpt lat="56.2883349" lon="44.0265041"><time>2023-09-20T13:48:51.417</time></trkpt><trkpt lat="56.2883797" lon="44.0264946"><time>2023-09-20T13:48:53.457</time></trkpt><trkpt lat="56.2884255" lon="44.0264913"><time>2023-09-20T13:48:55.450</time></trkpt><trkpt lat="56.2884701" lon="44.0265169"><time>2023-09-20T13:48:57.440</time></trkpt><trkpt lat="56.2885257" lon="44.0265734"><time>2023-09-20T13:49:00.467</time></trkpt><trkpt lat="56.2885794" lon="44.0266000"><time>2023-09-20T13:49:02.447</time></trkpt><trkpt lat="56.2886106" lon="44.0266170"><time>2023-09-20T13:49:03.427</time></trkpt><trkpt lat="56.2886688" lon="44.0266626"><time>2023-09-20T13:49:05.437</time></trkpt><trkpt lat="56.2887287" lon="44.0267067"><time>2023-09-20T13:49:07.443</time></trkpt><trkpt lat="56.2887756" lon="44.0267582"><time>2023-09-20T13:49:09.440</time></trkpt><trkpt lat="56.2888179" lon="44.0268046"><time>2023-09-20T13:49:11.417</time></trkpt><trkpt lat="56.2888571" lon="44.0268677"><time>2023-09-20T13:49:13.437</time></trkpt><trkpt lat="56.2888998" lon="44.0269366"><time>2023-09-20T13:49:15.463</time></trkpt><trkpt lat="56.2888998" lon="44.0269366"><time>2023-09-20T13:49:15.513</time></trkpt><trkpt lat="56.2889445" lon="44.0270102"><time>2023-09-20T13:49:17.467</time></trkpt><trkpt lat="56.2889592" lon="44.0270419"><time>2023-09-20T13:49:18.457</time></trkpt><trkpt lat="56.2889971" lon="44.0270905"><time>2023-09-20T13:49:20.440</time></trkpt><trkpt lat="56.2890531" lon="44.0271584"><time>2023-09-20T13:49:23.450</time></trkpt><trkpt lat="56.2891041" lon="44.0271952"><time>2023-09-20T13:49:26.450</time></trkpt><trkpt lat="56.2891617" lon="44.0272343"><time>2023-09-20T13:49:29.443</time></trkpt><trkpt lat="56.2892225" lon="44.0272627"><time>2023-09-20T13:49:32.443</time></trkpt><trkpt lat="56.2892560" lon="44.0273310"><time>2023-09-20T13:49:35.443</time></trkpt><trkpt lat="56.2893152" lon="44.0273800"><time>2023-09-20T13:49:39.447</time></trkpt><trkpt lat="56.2893699" lon="44.0273743"><time>2023-09-20T13:49:42.470</time></trkpt><trkpt lat="56.2894359" lon="44.0273809"><time>2023-09-20T13:49:45.447</time></trkpt><trkpt lat="56.2894936" lon="44.0274024"><time>2023-09-20T13:49:48.460</time></trkpt><trkpt lat="56.2894361" lon="44.0273921"><time>2023-09-20T13:50:06.443</time></trkpt><trkpt lat="56.2893892" lon="44.0273744"><time>2023-09-20T13:50:09.440</time></trkpt><trkpt lat="56.2893615" lon="44.0273074"><time>2023-09-20T13:50:12.447</time></trkpt><trkpt lat="56.2893511" lon="44.0272094"><time>2023-09-20T13:50:16.450</time></trkpt><trkpt lat="56.2893403" lon="44.0271270"><time>2023-09-20T13:50:19.437</time></trkpt><trkpt lat="56.2893355" lon="44.0270403"><time>2023-09-20T13:50:22.413</time></trkpt><trkpt lat="56.2893335" lon="44.0269477"><time>2023-09-20T13:50:26.447</time></trkpt><trkpt lat="56.2893282" lon="44.0268253"><time>2023-09-20T13:50:29.447</time></trkpt><trkpt lat="56.2893175" lon="44.0267387"><time>2023-09-20T13:50:31.437</time></trkpt><trkpt lat="56.2893076" lon="44.0266224"><time>2023-09-20T13:50:34.450</time></trkpt><trkpt lat="56.2893005" lon="44.0265359"><time>2023-09-20T13:50:36.447</time></trkpt><trkpt lat="56.2892949" lon="44.0264490"><time>2023-09-20T13:50:38.443</time></trkpt><trkpt lat="56.2892960" lon="44.0263384"><time>2023-09-20T13:50:40.450</time></trkpt><trkpt lat="56.2892936" lon="44.0262259"><time>2023-09-20T13:50:42.450</time></trkpt><trkpt lat="56.2892913" lon="44.0261160"><time>2023-09-20T13:50:44.433</time></trkpt><trkpt lat="56.2892813" lon="44.0260032"><time>2023-09-20T13:50:46.447</time></trkpt><trkpt lat="56.2892719" lon="44.0259068"><time>2023-09-20T13:50:48.470</time></trkpt><trkpt lat="56.2892628" lon="44.0258144"><time>2023-09-20T13:50:50.443</time></trkpt><trkpt lat="56.2892440" lon="44.0257266"><time>2023-09-20T13:50:52.443</time></trkpt><trkpt lat="56.2892343" lon="44.0256033"><time>2023-09-20T13:50:55.457</time></trkpt><trkpt lat="56.2892337" lon="44.0254910"><time>2023-09-20T13:50:58.477</time></trkpt><trkpt lat="56.2892305" lon="44.0253949"><time>2023-09-20T13:51:00.407</time></trkpt><trkpt lat="56.2892158" lon="44.0252857"><time>2023-09-20T13:51:02.400</time></trkpt><trkpt lat="56.2892085" lon="44.0251889"><time>2023-09-20T13:51:04.467</time></trkpt><trkpt lat="56.2892075" lon="44.0251018"><time>2023-09-20T13:51:06.447</time></trkpt><trkpt lat="56.2892048" lon="44.0249638"><time>2023-09-20T13:51:09.463</time></trkpt><trkpt lat="56.2892187" lon="44.0248732"><time>2023-09-20T13:51:11.450</time></trkpt><trkpt lat="56.2892297" lon="44.0247809"><time>2023-09-20T13:51:13.470</time></trkpt><trkpt lat="56.2892283" lon="44.0246969"><time>2023-09-20T13:51:15.457</time></trkpt><trkpt lat="56.2892275" lon="44.0246065"><time>2023-09-20T13:51:17.430</time></trkpt><trkpt lat="56.2892283" lon="44.0245238"><time>2023-09-20T13:51:19.453</time></trkpt><trkpt lat="56.2892358" lon="44.0244217"><time>2023-09-20T13:51:21.447</time></trkpt><trkpt lat="56.2892336" lon="44.0243277"><time>2023-09-20T13:51:23.457</time></trkpt><trkpt lat="56.2892346" lon="44.0242325"><time>2023-09-20T13:51:25.407</time></trkpt><trkpt lat="56.2892406" lon="44.0241426"><time>2023-09-20T13:51:27.397</time></trkpt><trkpt lat="56.2892539" lon="44.0240466"><time>2023-09-20T13:51:30.397</time></trkpt><trkpt lat="56.2892530" lon="44.0239329"><time>2023-09-20T13:51:34.423</time></trkpt><trkpt lat="56.2892486" lon="44.0238401"><time>2023-09-20T13:51:36.440</time></trkpt><trkpt lat="56.2892431" lon="44.0237554"><time>2023-09-20T13:51:39.427</time></trkpt><trkpt lat="56.2892270" lon="44.0236399"><time>2023-09-20T13:51:42.440</time></trkpt><trkpt lat="56.2892185" lon="44.0235578"><time>2023-09-20T13:51:44.440</time></trkpt><trkpt lat="56.2892169" lon="44.0234734"><time>2023-09-20T13:51:46.447</time></trkpt><trkpt lat="56.2892203" lon="44.0233666"><time>2023-09-20T13:51:49.440</time></trkpt><trkpt lat="56.2892119" lon="44.0232798"><time>2023-09-20T13:51:52.443</time></trkpt><trkpt lat="56.2892098" lon="44.0231735"><time>2023-09-20T13:51:55.427</time></trkpt><trkpt lat="56.2891921" lon="44.0230724"><time>2023-09-20T13:51:58.447</time></trkpt><trkpt lat="56.2891736" lon="44.0229832"><time>2023-09-20T13:52:00.427</time></trkpt><trkpt lat="56.2891530" lon="44.0228808"><time>2023-09-20T13:52:03.427</time></trkpt><trkpt lat="56.2891404" lon="44.0227907"><time>2023-09-20T13:52:06.463</time></trkpt><trkpt lat="56.2891279" lon="44.0227083"><time>2023-09-20T13:52:09.470</time></trkpt><trkpt lat="56.2891076" lon="44.0226141"><time>2023-09-20T13:52:12.453</time></trkpt><trkpt lat="56.2890802" lon="44.0225289"><time>2023-09-20T13:52:15.460</time></trkpt><trkpt lat="56.2890532" lon="44.0224309"><time>2023-09-20T13:52:18.477</time></trkpt><trkpt lat="56.2890380" lon="44.0223155"><time>2023-09-20T13:52:21.410</time></trkpt><trkpt lat="56.2890291" lon="44.0221992"><time>2023-09-20T13:52:25.437</time></trkpt><trkpt lat="56.2890209" lon="44.0221105"><time>2023-09-20T13:52:27.437</time></trkpt><trkpt lat="56.2890139" lon="44.0220296"><time>2023-09-20T13:52:29.440</time></trkpt><trkpt lat="56.2890034" lon="44.0219505"><time>2023-09-20T13:52:31.453</time></trkpt><trkpt lat="56.2889920" lon="44.0218406"><time>2023-09-20T13:52:34.447</time></trkpt><trkpt lat="56.2889810" lon="44.0217230"><time>2023-09-20T13:52:37.440</time></trkpt><trkpt lat="56.2889872" lon="44.0216156"><time>2023-09-20T13:52:40.447</time></trkpt><trkpt lat="56.2889843" lon="44.0215131"><time>2023-09-20T13:52:43.433</time></trkpt><trkpt lat="56.2889802" lon="44.0214188"><time>2023-09-20T13:52:46.447</time></trkpt><trkpt lat="56.2889695" lon="44.0213158"><time>2023-09-20T13:52:49.437</time></trkpt><trkpt lat="56.2889541" lon="44.0212028"><time>2023-09-20T13:52:52.433</time></trkpt><trkpt lat="56.2889494" lon="44.0211044"><time>2023-09-20T13:52:55.480</time></trkpt><trkpt lat="56.2889401" lon="44.0210249"><time>2023-09-20T13:52:57.457</time></trkpt><trkpt lat="56.2889325" lon="44.0209440"><time>2023-09-20T13:52:59.473</time></trkpt><trkpt lat="56.2889262" lon="44.0208188"><time>2023-09-20T13:53:02.483</time></trkpt><trkpt lat="56.2889332" lon="44.0206868"><time>2023-09-20T13:53:05.470</time></trkpt><trkpt lat="56.2889349" lon="44.0205860"><time>2023-09-20T13:53:07.463</time></trkpt><trkpt lat="56.2889492" lon="44.0205055"><time>2023-09-20T13:53:09.463</time></trkpt><trkpt lat="56.2889662" lon="44.0204142"><time>2023-09-20T13:53:11.453</time></trkpt><trkpt lat="56.2889712" lon="44.0203209"><time>2023-09-20T13:53:13.467</time></trkpt><trkpt lat="56.2889752" lon="44.0202331"><time>2023-09-20T13:53:15.490</time></trkpt><trkpt lat="56.2889742" lon="44.0201445"><time>2023-09-20T13:53:17.447</time></trkpt><trkpt lat="56.2889805" lon="44.0200595"><time>2023-09-20T13:53:19.480</time></trkpt><trkpt lat="56.2889826" lon="44.0199734"><time>2023-09-20T13:53:21.467</time></trkpt><trkpt lat="56.2889896" lon="44.0198928"><time>2023-09-20T13:53:23.460</time></trkpt><trkpt lat="56.2889985" lon="44.0198057"><time>2023-09-20T13:53:25.450</time></trkpt><trkpt lat="56.2890023" lon="44.0197078"><time>2023-09-20T13:53:27.457</time></trkpt><trkpt lat="56.2890047" lon="44.0196124"><time>2023-09-20T13:53:29.477</time></trkpt><trkpt lat="56.2890111" lon="44.0194902"><time>2023-09-20T13:53:32.513</time></trkpt><trkpt lat="56.2890181" lon="44.0194504"><time>2023-09-20T13:53:33.467</time></trkpt><trkpt lat="56.2890270" lon="44.0193655"><time>2023-09-20T13:53:35.477</time></trkpt><trkpt lat="56.2890397" lon="44.0192753"><time>2023-09-20T13:53:37.447</time></trkpt><trkpt lat="56.2890528" lon="44.0191770"><time>2023-09-20T13:53:39.507</time></trkpt><trkpt lat="56.2890614" lon="44.0190714"><time>2023-09-20T13:53:41.457</time></trkpt><trkpt lat="56.2890752" lon="44.0189817"><time>2023-09-20T13:53:43.463</time></trkpt><trkpt lat="56.2890848" lon="44.0188848"><time>2023-09-20T13:53:45.497</time></trkpt><trkpt lat="56.2890914" lon="44.0187904"><time>2023-09-20T13:53:47.477</time></trkpt><trkpt lat="56.2890956" lon="44.0186937"><time>2023-09-20T13:53:49.467</time></trkpt><trkpt lat="56.2891023" lon="44.0186093"><time>2023-09-20T13:53:51.473</time></trkpt><trkpt lat="56.2891128" lon="44.0184866"><time>2023-09-20T13:53:54.487</time></trkpt><trkpt lat="56.2891256" lon="44.0184035"><time>2023-09-20T13:53:56.473</time></trkpt><trkpt lat="56.2891367" lon="44.0183099"><time>2023-09-20T13:53:58.460</time></trkpt><trkpt lat="56.2891494" lon="44.0182137"><time>2023-09-20T13:54:00.423</time></trkpt><trkpt lat="56.2891631" lon="44.0181138"><time>2023-09-20T13:54:02.460</time></trkpt><trkpt lat="56.2891713" lon="44.0180072"><time>2023-09-20T13:54:04.483</time></trkpt><trkpt lat="56.2891737" lon="44.0179020"><time>2023-09-20T13:54:06.463</time></trkpt><trkpt lat="56.2891817" lon="44.0178032"><time>2023-09-20T13:54:08.477</time></trkpt><trkpt lat="56.2891889" lon="44.0177562"><time>2023-09-20T13:54:09.467</time></trkpt><trkpt lat="56.2891997" lon="44.0176491"><time>2023-09-20T13:54:11.500</time></trkpt><trkpt lat="56.2892193" lon="44.0175636"><time>2023-09-20T13:54:13.467</time></trkpt><trkpt lat="56.2892474" lon="44.0174749"><time>2023-09-20T13:54:15.453</time></trkpt><trkpt lat="56.2892767" lon="44.0174048"><time>2023-09-20T13:54:17.460</time></trkpt><trkpt lat="56.2893154" lon="44.0173260"><time>2023-09-20T13:54:19.453</time></trkpt><trkpt lat="56.2893512" lon="44.0172497"><time>2023-09-20T13:54:21.470</time></trkpt><trkpt lat="56.2893962" lon="44.0171768"><time>2023-09-20T13:54:23.460</time></trkpt><trkpt lat="56.2894322" lon="44.0170991"><time>2023-09-20T13:54:25.487</time></trkpt><trkpt lat="56.2894485" lon="44.0170616"><time>2023-09-20T13:54:26.463</time></trkpt><trkpt lat="56.2894839" lon="44.0169929"><time>2023-09-20T13:54:28.457</time></trkpt><trkpt lat="56.2895210" lon="44.0169369"><time>2023-09-20T13:54:30.457</time></trkpt><trkpt lat="56.2895493" lon="44.0168725"><time>2023-09-20T13:54:32.477</time></trkpt><trkpt lat="56.2895795" lon="44.0168036"><time>2023-09-20T13:54:34.463</time></trkpt><trkpt lat="56.2896088" lon="44.0167321"><time>2023-09-20T13:54:36.453</time></trkpt><trkpt lat="56.2896459" lon="44.0166633"><time>2023-09-20T13:54:38.473</time></trkpt><trkpt lat="56.2896836" lon="44.0166159"><time>2023-09-20T13:54:40.477</time></trkpt><trkpt lat="56.2897078" lon="44.0165417"><time>2023-09-20T13:54:42.420</time></trkpt><trkpt lat="56.2897446" lon="44.0164628"><time>2023-09-20T13:54:45.423</time></trkpt><trkpt lat="56.2897922" lon="44.0164516"><time>2023-09-20T13:54:48.433</time></trkpt></trkseg></trk></gpx>